Wetterdaten: Samstag, 03.08.2013
Datum Zeit Temp. Aussen +5cm Feuchte Auss Luftdruck Regen Sonnenschein T BodenTemp UV Solar Windben
03.08.2013 00:00 27,2 C 23,0 C 56 % 1009,2 hPa 0,0 l/m 0 min 0 min 0,0 UV-I 0 W/m 0,0 km/h (0 Bft)
03.08.2013 00:02 27,2 C 23,0 C 56 % 1009,2 hPa 0,0 l/m 0 min 0 min 0,0 UV-I 0 W/m 0,0 km/h (0 Bft)
03.08.2013 00:06 27,2 C 23,0 C 57 % 1009,3 hPa 0,0 l/m 0 min 0 min 0,0 UV-I 0 W/m 0,0 km/h (0 Bft)
03.08.2013 00:08 27,2 C 23,0 C 57 % 1009,3 hPa 0,0 l/m 0 min 0 min 0,0 UV-I 0 W/m 0,0 km/h (0 Bft)
03.08.2013 00:10 27,1 C 23,0 C 57 % 1009,3 hPa 0,0 l/m 0 min 0 min 0,0 UV-I 0 W/m 0,0 km/h (0 Bft)
03.08.2013 00:12 27,1 C 23,0 C 57 % 1009,3 hPa 0,0 l/m 0 min 0 min 0,0 UV-I 0 W/m 0,0 km/h (0 Bft)
03.08.2013 00:14 27,1 C 22,4 C 57 % 1009,5 hPa 0,0 l/m 0 min 0 min 0,0 UV-I 0 W/m 0,0 km/h (0 Bft)
03.08.2013 00:16 27,1 C 22,4 C 57 % 1009,4 hPa 0,0 l/m 0 min 0 min 0,0 UV-I 0 W/m 0,0 km/h (0 Bft)
03.08.2013 00:18 27,1 C 22,4 C 57 % 1009,4 hPa 0,0 l/m 0 min 0 min 0,0 UV-I 0 W/m 0,0 km/h (0 Bft)
03.08.2013 00:20 27,0 C 22,4 C 57 % 1009,5 hPa 0,0 l/m 0 min 0 min 0,0 UV-I 0 W/m 0,0 km/h (0 Bft)
03.08.2013 00:22 27,0 C 22,4 C 58 % 1009,6 hPa 0,0 l/m 0 min 0 min 0,0 UV-I 0 W/m 0,0 km/h (0 Bft)
03.08.2013 00:24 26,9 C 22,4 C 58 % 1009,6 hPa 0,0 l/m 0 min 0 min 0,0 UV-I 0 W/m 0,0 km/h (0 Bft)
03.08.2013 00:26 26,9 C 22,4 C 58 % 1009,6 hPa 0,0 l/m 0 min 0 min 0,0 UV-I 0 W/m 0,0 km/h (0 Bft)
03.08.2013 00:28 26,9 C 22,4 C 58 % 1009,6 hPa 0,0 l/m 0 min 0 min 0,0 UV-I 0 W/m 0,0 km/h (0 Bft)
03.08.2013 00:30 26,9 C 22,4 C 58 % 1009,6 hPa 0,0 l/m 0 min 0 min 0,0 UV-I 0 W/m 0,0 km/h (0 Bft)
03.08.2013 00:32 26,8 C 22,4 C 59 % 1009,7 hPa 0,0 l/m 0 min 0 min 0,0 UV-I 0 W/m 0,0 km/h (0 Bft)
03.08.2013 00:34 26,8 C 22,4 C 59 % 1009,7 hPa 0,0 l/m 0 min 0 min 0,0 UV-I 0 W/m 0,0 km/h (0 Bft)
03.08.2013 00:36 26,8 C 22,4 C 59 % 1009,8 hPa 0,0 l/m 0 min 0 min 0,0 UV-I 0 W/m 0,0 km/h (0 Bft)
03.08.2013 00:38 26,8 C 22,4 C 60 % 1009,8 hPa 0,0 l/m 0 min 0 min 0,0 UV-I 0 W/m 0,0 km/h (0 Bft)
03.08.2013 00:40 26,8 C 22,4 C 60 % 1009,9 hPa 0,0 l/m 0 min 0 min 0,0 UV-I 0 W/m 0,0 km/h (0 Bft)
03.08.2013 00:42 26,7 C 23,0 C 59 % 1009,9 hPa 0,0 l/m 0 min 0 min 0,0 UV-I 0 W/m 0,0 km/h (0 Bft)
03.08.2013 00:44 26,7 C 23,0 C 60 % 1010,1 hPa 0,0 l/m 0 min 0 min 0,0 UV-I 0 W/m 0,0 km/h (0 Bft)
03.08.2013 00:46 26,7 C 23,0 C 60 % 1010,1 hPa 0,0 l/m 0 min 0 min 0,0 UV-I 0 W/m 0,0 km/h (0 Bft)
03.08.2013 00:48 26,6 C 23,0 C 60 % 1010,1 hPa 0,0 l/m 0 min 0 min 0,0 UV-I 0 W/m 0,0 km/h (0 Bft)
03.08.2013 00:50 26,6 C 23,6 C 60 % 1010,1 hPa 0,0 l/m 0 min 0 min 0,0 UV-I 0 W/m 0,0 km/h (0 Bft)
03.08.2013 00:52 26,6 C 23,0 C 61 % 1010,1 hPa 0,0 l/m 0 min 0 min 0,0 UV-I 0 W/m 0,0 km/h (0 Bft)
03.08.2013 00:54 26,6 C 23,0 C 61 % 1010,1 hPa 0,0 l/m 0 min 0 min 0,0 UV-I 0 W/m 0,0 km/h (0 Bft)
03.08.2013 00:56 26,6 C 23,0 C 62 % 1010,3 hPa 0,0 l/m 0 min 0 min 0,0 UV-I 0 W/m 0,0 km/h (0 Bft)
03.08.2013 00:58 26,6 C 23,0 C 62 % 1010,3 hPa 0,0 l/m 0 min 0 min 0,0 UV-I 0 W/m 0,0 km/h (0 Bft)
03.08.2013 01:00 26,6 C 23,0 C 62 % 1010,4 hPa 0,0 l/m 0 min 0 min 0,0 UV-I 0 W/m 16,5 km/h (3 Bft)
03.08.2013 01:02 26,6 C 23,0 C 63 % 1010,4 hPa 0,0 l/m 0 min 0 min 0,0 UV-I 0 W/m 0,0 km/h (0 Bft)
03.08.2013 01:06 26,5 C 23,0 C 64 % 1010,4 hPa 0,0 l/m 0 min 0 min 0,0 UV-I 0 W/m 4,2 km/h (1 Bft)
03.08.2013 01:08 26,5 C 23,0 C 66 % 1010,5 hPa 0,0 l/m 0 min 0 min 0,0 UV-I 0 W/m 20,6 km/h (4 Bft)
03.08.2013 01:10 26,4 C 23,0 C 66 % 1010,5 hPa 0,0 l/m 0 min 0 min 0,0 UV-I 0 W/m 16,5 km/h (3 Bft)
03.08.2013 01:12 26,4 C 23,0 C 67 % 1010,5 hPa 0,0 l/m 0 min 0 min 0,0 UV-I 0 W/m 0,0 km/h (0 Bft)
03.08.2013 01:14 26,4 C 23,0 C 68 % 1010,5 hPa 0,0 l/m 0 min 0 min 0,0 UV-I 0 W/m 16,5 km/h (3 Bft)
03.08.2013 01:16 26,3 C 23,0 C 68 % 1010,6 hPa 0,0 l/m 0 min 0 min 0,0 UV-I 0 W/m 24,6 km/h (4 Bft)
03.08.2013 01:18 26,3 C 23,0 C 69 % 1010,7 hPa 0,0 l/m 0 min 0 min 0,0 UV-I 0 W/m 12,3 km/h (3 Bft)
03.08.2013 01:20 26,2 C 22,4 C 70 % 1010,7 hPa 0,0 l/m 0 min 0 min 0,0 UV-I 0 W/m 20,6 km/h (4 Bft)
03.08.2013 01:22 26,1 C 22,4 C 71 % 1010,7 hPa 0,0 l/m 0 min 0 min 0,0 UV-I 0 W/m 24,6 km/h (4 Bft)
03.08.2013 01:24 26,0 C 22,4 C 71 % 1010,8 hPa 0,0 l/m 0 min 0 min 0,0 UV-I 0 W/m 24,6 km/h (4 Bft)
03.08.2013 01:26 25,9 C 22,4 C 71 % 1010,8 hPa 0,0 l/m 0 min 0 min 0,0 UV-I 0 W/m 24,6 km/h (4 Bft)
03.08.2013 01:28 25,8 C 22,4 C 72 % 1010,8 hPa 0,0 l/m 0 min 0 min 0,0 UV-I 0 W/m 20,6 km/h (4 Bft)
03.08.2013 01:30 25,7 C 22,4 C 72 % 1011,0 hPa 0,0 l/m 0 min 0 min 0,0 UV-I 0 W/m 12,3 km/h (3 Bft)
03.08.2013 01:32 25,7 C 21,9 C 73 % 1011,1 hPa 0,0 l/m 0 min 0 min 0,0 UV-I 0 W/m 12,3 km/h (3 Bft)
03.08.2013 01:34 25,6 C 21,9 C 73 % 1011,2 hPa 0,0 l/m 0 min 0 min 0,0 UV-I 0 W/m 24,6 km/h (4 Bft)
03.08.2013 01:36 25,4 C 21,9 C 73 % 1011,1 hPa 0,0 l/m 0 min 0 min 0,0 UV-I 0 W/m 16,5 km/h (3 Bft)
03.08.2013 01:38 25,3 C 21,9 C 73 % 1011,2 hPa 0,0 l/m 0 min 0 min 0,0 UV-I 0 W/m 12,3 km/h (3 Bft)
03.08.2013 01:40 25,3 C 21,9 C 73 % 1011,2 hPa 0,0 l/m 0 min 0 min 0,0 UV-I 0 W/m 28,8 km/h (4 Bft)
03.08.2013 01:42 25,2 C 21,9 C 73 % 1011,1 hPa 0,0 l/m 0 min 0 min 0,0 UV-I 0 W/m 0,0 km/h (0 Bft)
03.08.2013 01:44 25,2 C 21,9 C 73 % 1011,2 hPa 0,0 l/m 0 min 0 min 0,0 UV-I 0 W/m 4,2 km/h (1 Bft)
03.08.2013 01:46 25,1 C 21,9 C 73 % 1011,2 hPa 0,0 l/m 0 min 0 min 0,0 UV-I 0 W/m 4,2 km/h (1 Bft)
03.08.2013 01:48 25,0 C 21,9 C 73 % 1011,1 hPa 0,0 l/m 0 min 0 min 0,0 UV-I 0 W/m 4,2 km/h (1 Bft)
03.08.2013 01:50 24,9 C 21,9 C 73 % 1011,2 hPa 0,0 l/m 0 min 0 min 0,0 UV-I 0 W/m 20,6 km/h (4 Bft)
03.08.2013 01:52 24,9 C 21,9 C 73 % 1011,3 hPa 0,0 l/m 0 min 0 min 0,0 UV-I 0 W/m 4,2 km/h (1 Bft)
03.08.2013 01:54 24,8 C 21,9 C 73 % 1011,2 hPa 0,0 l/m 0 min 0 min 0,0 UV-I 0 W/m 24,6 km/h (4 Bft)
03.08.2013 01:56 24,7 C 21,9 C 73 % 1011,2 hPa 0,0 l/m 0 min 0 min 0,0 UV-I 0 W/m 8,2 km/h (2 Bft)
03.08.2013 01:58 24,7 C 21,9 C 73 % 1011,2 hPa 0,0 l/m 0 min 0 min 0,0 UV-I 0 W/m 16,5 km/h (3 Bft)
03.08.2013 02:00 24,6 C 21,9 C 73 % 1011,2 hPa 0,0 l/m 0 min 0 min 0,0 UV-I 0 W/m 0,0 km/h (0 Bft)
03.08.2013 02:02 24,6 C 21,3 C 73 % 1011,3 hPa 0,0 l/m 0 min 0 min 0,0 UV-I 0 W/m 16,5 km/h (3 Bft)
03.08.2013 02:06 24,4 C 21,3 C 74 % 1011,2 hPa 0,0 l/m 0 min 0 min 0,0 UV-I 0 W/m 4,2 km/h (1 Bft)
03.08.2013 02:08 24,4 C 21,3 C 74 % 1011,2 hPa 0,0 l/m 0 min 0 min 0,0 UV-I 0 W/m 4,2 km/h (1 Bft)
03.08.2013 02:10 24,4 C 21,3 C 74 % 1011,2 hPa 0,0 l/m 0 min 0 min 0,0 UV-I 0 W/m 0,0 km/h (0 Bft)
03.08.2013 02:12 24,4 C 21,3 C 74 % 1011,2 hPa 0,0 l/m 0 min 0 min 0,0 UV-I 0 W/m 0,0 km/h (0 Bft)
03.08.2013 02:14 24,3 C 21,3 C 74 % 1011,2 hPa 0,0 l/m 0 min 0 min 0,0 UV-I 0 W/m 0,0 km/h (0 Bft)
03.08.2013 02:16 24,3 C 21,3 C 74 % 1011,1 hPa 0,0 l/m 0 min 0 min 0,0 UV-I 0 W/m 8,2 km/h (2 Bft)
03.08.2013 02:18 24,3 C 21,3 C 75 % 1011,2 hPa 0,0 l/m 0 min 0 min 0,0 UV-I 0 W/m 0,0 km/h (0 Bft)
03.08.2013 02:20 24,2 C 21,3 C 75 % 1011,1 hPa 0,0 l/m 0 min 0 min 0,0 UV-I 0 W/m 0,0 km/h (0 Bft)
03.08.2013 02:22 24,2 C 21,3 C 75 % 1011,1 hPa 0,0 l/m 0 min 0 min 0,0 UV-I 0 W/m 4,2 km/h (1 Bft)
03.08.2013 02:24 24,2 C 21,3 C 75 % 1011,1 hPa 0,0 l/m 0 min 0 min 0,0 UV-I 0 W/m 0,0 km/h (0 Bft)
03.08.2013 02:26 24,1 C 21,3 C 75 % 1011,1 hPa 0,0 l/m 0 min 0 min 0,0 UV-I 0 W/m 4,2 km/h (1 Bft)
03.08.2013 02:28 24,1 C 21,3 C 75 % 1011,3 hPa 0,0 l/m 0 min 0 min 0,0 UV-I 0 W/m 0,0 km/h (0 Bft)
03.08.2013 02:30 24,1 C 20,8 C 76 % 1011,2 hPa 0,0 l/m 0 min 0 min 0,0 UV-I 0 W/m 0,0 km/h (0 Bft)
03.08.2013 02:32 24,1 C 20,8 C 76 % 1011,2 hPa 0,0 l/m 0 min 0 min 0,0 UV-I 0 W/m 4,2 km/h (1 Bft)
03.08.2013 02:34 24,0 C 20,8 C 76 % 1011,2 hPa 0,0 l/m 0 min 0 min 0,0 UV-I 0 W/m 0,0 km/h (0 Bft)
03.08.2013 02:36 23,9 C 20,8 C 76 % 1011,3 hPa 0,0 l/m 0 min 0 min 0,0 UV-I 0 W/m 0,0 km/h (0 Bft)
03.08.2013 02:38 23,9 C 20,8 C 76 % 1011,4 hPa 0,0 l/m 0 min 0 min 0,0 UV-I 0 W/m 0,0 km/h (0 Bft)
03.08.2013 02:40 23,9 C 20,8 C 76 % 1011,3 hPa 0,0 l/m 0 min 0 min 0,0 UV-I 0 W/m 4,2 km/h (1 Bft)
03.08.2013 02:42 23,8 C 20,8 C 76 % 1011,4 hPa 0,0 l/m 0 min 0 min 0,0 UV-I 0 W/m 0,0 km/h (0 Bft)
03.08.2013 02:44 23,8 C 20,8 C 76 % 1011,4 hPa 0,0 l/m 0 min 0 min 0,0 UV-I 0 W/m 0,0 km/h (0 Bft)
03.08.2013 02:46 23,8 C 20,8 C 76 % 1011,4 hPa 0,0 l/m 0 min 0 min 0,0 UV-I 0 W/m 0,0 km/h (0 Bft)
03.08.2013 02:48 23,8 C 20,8 C 77 % 1011,5 hPa 0,0 l/m 0 min 0 min 0,0 UV-I 0 W/m 0,0 km/h (0 Bft)
03.08.2013 02:50 23,7 C 20,8 C 77 % 1011,5 hPa 0,0 l/m 0 min 0 min 0,0 UV-I 0 W/m 0,0 km/h (0 Bft)
03.08.2013 02:52 23,7 C 20,8 C 77 % 1011,6 hPa 0,0 l/m 0 min 0 min 0,0 UV-I 0 W/m 0,0 km/h (0 Bft)
03.08.2013 02:54 23,7 C 20,8 C 77 % 1011,7 hPa 0,0 l/m 0 min 0 min 0,0 UV-I 0 W/m 0,0 km/h (0 Bft)
03.08.2013 02:56 23,7 C 20,8 C 77 % 1011,8 hPa 0,0 l/m 0 min 0 min 0,0 UV-I 0 W/m 0,0 km/h (0 Bft)
03.08.2013 02:58 23,6 C 20,8 C 78 % 1011,8 hPa 0,0 l/m 0 min 0 min 0,0 UV-I 0 W/m 4,2 km/h (1 Bft)
03.08.2013 03:00 23,6 C 20,8 C 78 % 1011,9 hPa 0,0 l/m 0 min 0 min 0,0 UV-I 0 W/m 0,0 km/h (0 Bft)
03.08.2013 03:02 23,5 C 20,8 C 78 % 1011,9 hPa 0,0 l/m 0 min 0 min 0,0 UV-I 0 W/m 8,2 km/h (2 Bft)
03.08.2013 03:06 23,4 C 20,2 C 79 % 1011,9 hPa 0,0 l/m 0 min 0 min 0,0 UV-I 0 W/m 12,3 km/h (3 Bft)
03.08.2013 03:08 23,4 C 20,2 C 79 % 1012,0 hPa 0,0 l/m 0 min 0 min 0,0 UV-I 0 W/m 0,0 km/h (0 Bft)
03.08.2013 03:10 23,3 C 20,2 C 79 % 1012,0 hPa 0,0 l/m 0 min 0 min 0,0 UV-I 0 W/m 4,2 km/h (1 Bft)
03.08.2013 03:12 23,3 C 20,2 C 79 % 1012,1 hPa 0,0 l/m 0 min 0 min 0,0 UV-I 0 W/m 0,0 km/h (0 Bft)
03.08.2013 03:14 23,2 C 20,2 C 79 % 1012,1 hPa 0,0 l/m 0 min 0 min 0,0 UV-I 0 W/m 16,5 km/h (3 Bft)
03.08.2013 03:16 23,2 C 20,2 C 79 % 1012,1 hPa 0,0 l/m 0 min 0 min 0,0 UV-I 0 W/m 16,5 km/h (3 Bft)
03.08.2013 03:18 23,1 C 20,2 C 79 % 1012,1 hPa 0,0 l/m 0 min 0 min 0,0 UV-I 0 W/m 4,2 km/h (1 Bft)
03.08.2013 03:20 23,1 C 20,2 C 79 % 1012,1 hPa 0,0 l/m 0 min 0 min 0,0 UV-I 0 W/m 0,0 km/h (0 Bft)
03.08.2013 03:22 23,1 C 20,2 C 79 % 1012,2 hPa 0,0 l/m 0 min 0 min 0,0 UV-I 0 W/m 0,0 km/h (0 Bft)
03.08.2013 03:24 23,0 C 20,2 C 79 % 1012,1 hPa 0,0 l/m 0 min 0 min 0,0 UV-I 0 W/m 8,2 km/h (2 Bft)
03.08.2013 03:26 22,9 C 20,2 C 79 % 1012,2 hPa 0,0 l/m 0 min 0 min 0,0 UV-I 0 W/m 16,5 km/h (3 Bft)
03.08.2013 03:28 22,9 C 20,2 C 79 % 1012,2 hPa 0,0 l/m 0 min 0 min 0,0 UV-I 0 W/m 12,3 km/h (3 Bft)
03.08.2013 03:30 22,9 C 20,2 C 79 % 1012,3 hPa 0,0 l/m 0 min 0 min 0,0 UV-I 0 W/m 16,5 km/h (3 Bft)
03.08.2013 03:32 22,8 C 20,2 C 79 % 1012,4 hPa 0,0 l/m 0 min 0 min 0,0 UV-I 0 W/m 8,2 km/h (2 Bft)
03.08.2013 03:34 22,8 C 20,2 C 79 % 1012,4 hPa 0,0 l/m 0 min 0 min 0,0 UV-I 0 W/m 16,5 km/h (3 Bft)
03.08.2013 03:36 22,8 C 20,2 C 79 % 1012,6 hPa 0,0 l/m 0 min 0 min 0,0 UV-I 0 W/m 12,3 km/h (3 Bft)
03.08.2013 03:38 22,7 C 20,2 C 79 % 1012,7 hPa 0,0 l/m 0 min 0 min 0,0 UV-I 0 W/m 16,5 km/h (3 Bft)
03.08.2013 03:40 22,7 C 20,2 C 80 % 1012,9 hPa 0,0 l/m 0 min 0 min 0,0 UV-I 0 W/m 12,3 km/h (3 Bft)
03.08.2013 03:42 22,7 C 20,2 C 80 % 1012,7 hPa 0,0 l/m 0 min 0 min 0,0 UV-I 0 W/m 0,0 km/h (0 Bft)
03.08.2013 03:44 22,6 C 20,2 C 80 % 1012,7 hPa 0,0 l/m 0 min 0 min 0,0 UV-I 0 W/m 4,2 km/h (1 Bft)
03.08.2013 03:46 22,6 C 20,2 C 80 % 1012,7 hPa 0,0 l/m 0 min 0 min 0,0 UV-I 0 W/m 0,0 km/h (0 Bft)
03.08.2013 03:48 22,6 C 20,2 C 81 % 1012,7 hPa 0,0 l/m 0 min 0 min 0,0 UV-I 0 W/m 20,6 km/h (4 Bft)
03.08.2013 03:50 22,5 C 20,2 C 81 % 1012,8 hPa 0,0 l/m 0 min 0 min 0,0 UV-I 0 W/m 20,6 km/h (4 Bft)
03.08.2013 03:52 22,4 C 20,2 C 80 % 1012,8 hPa 0,0 l/m 0 min 0 min 0,0 UV-I 0 W/m 37,1 km/h (5 Bft)
03.08.2013 03:54 22,4 C 20,2 C 80 % 1012,8 hPa 0,0 l/m 0 min 0 min 0,0 UV-I 0 W/m 20,6 km/h (4 Bft)
03.08.2013 03:56 22,4 C 20,2 C 80 % 1012,8 hPa 0,0 l/m 0 min 0 min 0,0 UV-I 0 W/m 20,6 km/h (4 Bft)
03.08.2013 03:58 22,4 C 20,2 C 80 % 1012,7 hPa 0,0 l/m 0 min 0 min 0,0 UV-I 0 W/m 0,0 km/h (0 Bft)
03.08.2013 04:00 22,3 C 20,2 C 80 % 1012,9 hPa 0,0 l/m 0 min 0 min 0,0 UV-I 0 W/m 16,5 km/h (3 Bft)
03.08.2013 04:02 22,3 C 20,2 C 80 % 1012,9 hPa 0,0 l/m 0 min 0 min 0,0 UV-I 0 W/m 16,5 km/h (3 Bft)
03.08.2013 04:06 22,3 C 20,2 C 81 % 1013,0 hPa 0,0 l/m 0 min 0 min 0,0 UV-I 0 W/m 4,2 km/h (1 Bft)
03.08.2013 04:08 22,3 C 20,2 C 80 % 1012,8 hPa 0,0 l/m 0 min 0 min 0,0 UV-I 0 W/m 4,2 km/h (1 Bft)
03.08.2013 04:10 22,3 C 20,2 C 81 % 1012,8 hPa 0,0 l/m 0 min 0 min 0,0 UV-I 0 W/m 8,2 km/h (2 Bft)
03.08.2013 04:12 22,3 C 20,2 C 80 % 1012,6 hPa 0,0 l/m 0 min 0 min 0,0 UV-I 0 W/m 0,0 km/h (0 Bft)
03.08.2013 04:14 22,3 C 20,2 C 80 % 1012,6 hPa 0,0 l/m 0 min 0 min 0,0 UV-I 0 W/m 16,5 km/h (3 Bft)
03.08.2013 04:16 22,2 C 20,2 C 80 % 1012,7 hPa 0,0 l/m 0 min 0 min 0,0 UV-I 0 W/m 0,0 km/h (0 Bft)
03.08.2013 04:18 22,2 C 20,2 C 80 % 1012,8 hPa 0,0 l/m 0 min 0 min 0,0 UV-I 0 W/m 4,2 km/h (1 Bft)
03.08.2013 04:20 22,2 C 20,2 C 80 % 1012,8 hPa 0,0 l/m 0 min 0 min 0,0 UV-I 0 W/m 0,0 km/h (0 Bft)
03.08.2013 04:22 22,2 C 19,7 C 80 % 1012,8 hPa 0,0 l/m 0 min 0 min 0,0 UV-I 0 W/m 8,2 km/h (2 Bft)
03.08.2013 04:24 22,2 C 19,7 C 80 % 1012,8 hPa 0,0 l/m 0 min 0 min 0,0 UV-I 0 W/m 4,2 km/h (1 Bft)
03.08.2013 04:26 22,2 C 19,7 C 80 % 1012,8 hPa 0,0 l/m 0 min 0 min 0,0 UV-I 0 W/m 12,3 km/h (3 Bft)
03.08.2013 04:28 22,2 C 19,7 C 80 % 1012,8 hPa 0,0 l/m 0 min 0 min 0,0 UV-I 0 W/m 4,2 km/h (1 Bft)
03.08.2013 04:30 22,2 C 19,7 C 80 % 1012,8 hPa 0,0 l/m 0 min 0 min 0,0 UV-I 0 W/m 4,2 km/h (1 Bft)
03.08.2013 04:32 22,2 C 19,7 C 80 % 1012,9 hPa 0,0 l/m 0 min 2 min 0,0 UV-I 0 W/m 0,0 km/h (0 Bft)
03.08.2013 04:34 22,1 C 19,1 C 80 % 1013,0 hPa 0,0 l/m 0 min 2 min 0,0 UV-I 0 W/m 0,0 km/h (0 Bft)
03.08.2013 04:36 22,1 C 19,1 C 80 % 1013,1 hPa 0,0 l/m 0 min 2 min 0,0 UV-I 0 W/m 4,2 km/h (1 Bft)
03.08.2013 04:38 22,1 C 19,1 C 80 % 1013,2 hPa 0,0 l/m 0 min 2 min 0,0 UV-I 0 W/m 0,0 km/h (0 Bft)
03.08.2013 04:40 22,1 C 19,1 C 80 % 1013,2 hPa 0,0 l/m 0 min 2 min 0,0 UV-I 0 W/m 4,2 km/h (1 Bft)
03.08.2013 04:42 22,1 C 19,1 C 80 % 1013,2 hPa 0,0 l/m 0 min 2 min 0,0 UV-I 0 W/m 16,5 km/h (3 Bft)
03.08.2013 04:44 22,1 C 19,1 C 80 % 1013,2 hPa 0,0 l/m 0 min 2 min 0,0 UV-I 0 W/m 12,3 km/h (3 Bft)
03.08.2013 04:46 22,1 C 19,1 C 80 % 1013,3 hPa 0,0 l/m 0 min 0 min 0,0 UV-I 0 W/m 0,0 km/h (0 Bft)
03.08.2013 04:48 22,0 C 19,1 C 80 % 1013,6 hPa 0,0 l/m 0 min 2 min 0,0 UV-I 0 W/m 4,2 km/h (1 Bft)
03.08.2013 04:50 22,0 C 19,1 C 80 % 1013,9 hPa 0,0 l/m 0 min 2 min 0,0 UV-I 0 W/m 0,0 km/h (0 Bft)
03.08.2013 04:52 22,0 C 18,6 C 80 % 1013,9 hPa 0,0 l/m 0 min 0 min 0,0 UV-I 0 W/m 0,0 km/h (0 Bft)
03.08.2013 04:54 21,9 C 18,6 C 80 % 1014,1 hPa 0,0 l/m 0 min 0 min 0,0 UV-I 0 W/m 0,0 km/h (0 Bft)
03.08.2013 04:56 21,9 C 18,6 C 81 % 1014,2 hPa 0,0 l/m 0 min 2 min 0,0 UV-I 0 W/m 0,0 km/h (0 Bft)
03.08.2013 04:58 21,9 C 18,0 C 81 % 1014,2 hPa 0,0 l/m 0 min 2 min 0,0 UV-I 0 W/m 0,0 km/h (0 Bft)
03.08.2013 05:00 21,9 C 18,0 C 81 % 1014,7 hPa 0,0 l/m 0 min 2 min 0,0 UV-I 0 W/m 0,0 km/h (0 Bft)
03.08.2013 05:02 21,9 C 17,4 C 81 % 1014,8 hPa 0,0 l/m 0 min 2 min 0,0 UV-I 0 W/m 0,0 km/h (0 Bft)
03.08.2013 05:06 21,8 C 17,4 C 82 % 1015,0 hPa 0,0 l/m 0 min 2 min 0,0 UV-I 0 W/m 24,6 km/h (4 Bft)
03.08.2013 05:08 21,8 C 17,4 C 83 % 1015,1 hPa 0,2 l/m 0 min 2 min 0,0 UV-I 0 W/m 4,2 km/h (1 Bft)
03.08.2013 05:10 21,8 C 17,4 C 83 % 1015,1 hPa 0,0 l/m 0 min 2 min 0,0 UV-I 0 W/m 0,0 km/h (0 Bft)
03.08.2013 05:12 21,7 C 17,4 C 83 % 1015,0 hPa 0,0 l/m 0 min 2 min 0,0 UV-I 0 W/m 4,2 km/h (1 Bft)
03.08.2013 05:14 21,7 C 17,4 C 84 % 1014,8 hPa 0,0 l/m 0 min 2 min 0,0 UV-I 0 W/m 0,0 km/h (0 Bft)
03.08.2013 05:16 21,7 C 17,4 C 84 % 1014,7 hPa 0,2 l/m 0 min 2 min 0,0 UV-I 0 W/m 4,2 km/h (1 Bft)
03.08.2013 05:18 21,6 C 16,9 C 84 % 1014,5 hPa 0,0 l/m 0 min 2 min 0,0 UV-I 0 W/m 0,0 km/h (0 Bft)
03.08.2013 05:20 21,6 C 16,9 C 85 % 1014,4 hPa 0,0 l/m 0 min 2 min 0,0 UV-I 0 W/m 0,0 km/h (0 Bft)
03.08.2013 05:22 21,5 C 17,4 C 85 % 1014,2 hPa 0,0 l/m 0 min 2 min 0,0 UV-I 0 W/m 0,0 km/h (0 Bft)
03.08.2013 05:24 21,4 C 17,4 C 85 % 1014,2 hPa 0,0 l/m 0 min 2 min 0,0 UV-I 0 W/m 0,0 km/h (0 Bft)
03.08.2013 05:26 21,4 C 17,4 C 85 % 1014,1 hPa 0,2 l/m 0 min 2 min 0,0 UV-I 0 W/m 0,0 km/h (0 Bft)
03.08.2013 05:28 21,4 C 17,4 C 86 % 1014,3 hPa 0,0 l/m 0 min 2 min 0,0 UV-I 0 W/m 0,0 km/h (0 Bft)
03.08.2013 05:30 21,4 C 17,4 C 86 % 1014,3 hPa 0,0 l/m 0 min 2 min 0,0 UV-I 0 W/m 0,0 km/h (0 Bft)
03.08.2013 05:32 21,3 C 17,4 C 86 % 1014,4 hPa 0,2 l/m 0 min 2 min 0,0 UV-I 0 W/m 0,0 km/h (0 Bft)
03.08.2013 05:34 21,3 C 17,4 C 87 % 1014,5 hPa 0,0 l/m 0 min 2 min 0,0 UV-I 0 W/m 0,0 km/h (0 Bft)
03.08.2013 05:36 21,2 C 17,4 C 87 % 1014,6 hPa 0,0 l/m 0 min 2 min 0,0 UV-I 0 W/m 0,0 km/h (0 Bft)
03.08.2013 05:38 21,2 C 17,4 C 87 % 1014,6 hPa 0,2 l/m 0 min 2 min 0,0 UV-I 0 W/m 0,0 km/h (0 Bft)
03.08.2013 05:40 21,1 C 17,4 C 87 % 1014,6 hPa 0,0 l/m 0 min 2 min 0,0 UV-I 0 W/m 0,0 km/h (0 Bft)
03.08.2013 05:42 21,1 C 17,4 C 88 % 1014,7 hPa 0,0 l/m 0 min 2 min 0,0 UV-I 0 W/m 0,0 km/h (0 Bft)
03.08.2013 05:44 21,1 C 17,4 C 88 % 1014,7 hPa 0,0 l/m 0 min 2 min 0,0 UV-I 0 W/m 0,0 km/h (0 Bft)
03.08.2013 05:46 21,0 C 17,4 C 88 % 1014,6 hPa 0,0 l/m 0 min 2 min 0,0 UV-I 0 W/m 0,0 km/h (0 Bft)
03.08.2013 05:48 21,0 C 17,4 C 89 % 1014,5 hPa 0,0 l/m 0 min 2 min 0,0 UV-I 0 W/m 0,0 km/h (0 Bft)
03.08.2013 05:50 20,9 C 17,4 C 89 % 1014,5 hPa 0,0 l/m 0 min 0 min 0,0 UV-I 0 W/m 0,0 km/h (0 Bft)
03.08.2013 05:52 20,9 C 17,4 C 89 % 1014,6 hPa 0,0 l/m 0 min 2 min 0,0 UV-I 0 W/m 0,0 km/h (0 Bft)
03.08.2013 05:54 20,9 C 17,4 C 89 % 1014,8 hPa 0,0 l/m 0 min 2 min 0,0 UV-I 0 W/m 0,0 km/h (0 Bft)
03.08.2013 05:56 20,8 C 17,4 C 89 % 1014,8 hPa 0,2 l/m 0 min 2 min 0,0 UV-I 0 W/m 0,0 km/h (0 Bft)
03.08.2013 05:58 20,8 C 17,4 C 90 % 1014,8 hPa 0,0 l/m 0 min 2 min 0,0 UV-I 0 W/m 0,0 km/h (0 Bft)
03.08.2013 06:00 20,8 C 17,4 C 90 % 1014,6 hPa 0,0 l/m 0 min 2 min 0,0 UV-I 0 W/m 0,0 km/h (0 Bft)
03.08.2013 06:02 20,8 C 17,4 C 90 % 1014,6 hPa 0,0 l/m 0 min 2 min 0,0 UV-I 0 W/m 0,0 km/h (0 Bft)
03.08.2013 06:06 20,7 C 17,4 C 90 % 1014,3 hPa 0,0 l/m 0 min 2 min 0,0 UV-I 0 W/m 0,0 km/h (0 Bft)
03.08.2013 06:08 20,7 C 17,4 C 91 % 1014,3 hPa 0,2 l/m 0 min 2 min 0,0 UV-I 0 W/m 0,0 km/h (0 Bft)
03.08.2013 06:10 20,7 C 17,4 C 91 % 1014,2 hPa 0,0 l/m 0 min 2 min 0,0 UV-I 0 W/m 4,2 km/h (1 Bft)
03.08.2013 06:12 20,6 C 17,4 C 91 % 1014,1 hPa 0,0 l/m 0 min 2 min 0,0 UV-I 0 W/m 0,0 km/h (0 Bft)
03.08.2013 06:14 20,6 C 17,4 C 91 % 1014,0 hPa 0,0 l/m 0 min 2 min 0,0 UV-I 0 W/m 0,0 km/h (0 Bft)
03.08.2013 06:16 20,6 C 17,4 C 91 % 1013,9 hPa 0,0 l/m 0 min 0 min 0,0 UV-I 0 W/m 4,2 km/h (1 Bft)
03.08.2013 06:18 20,5 C 17,4 C 92 % 1014,0 hPa 0,0 l/m 0 min 2 min 0,0 UV-I 0 W/m 12,3 km/h (3 Bft)
03.08.2013 06:20 20,5 C 17,4 C 92 % 1014,0 hPa 0,0 l/m 0 min 2 min 0,0 UV-I 0 W/m 4,2 km/h (1 Bft)
03.08.2013 06:22 20,4 C 17,4 C 92 % 1013,9 hPa 0,0 l/m 0 min 2 min 0,0 UV-I 0 W/m 0,0 km/h (0 Bft)
03.08.2013 06:24 20,4 C 17,4 C 92 % 1013,6 hPa 0,0 l/m 0 min 2 min 0,0 UV-I 0 W/m 12,3 km/h (3 Bft)
03.08.2013 06:26 20,4 C 17,4 C 92 % 1013,5 hPa 0,0 l/m 0 min 2 min 0,0 UV-I 0 W/m 12,3 km/h (3 Bft)
03.08.2013 06:28 20,3 C 17,4 C 93 % 1013,5 hPa 0,0 l/m 0 min 2 min 0,0 UV-I 0 W/m 16,5 km/h (3 Bft)
03.08.2013 06:30 20,3 C 17,4 C 93 % 1013,4 hPa 0,0 l/m 0 min 2 min 0,0 UV-I 5 W/m 16,5 km/h (3 Bft)
03.08.2013 06:32 20,3 C 17,4 C 93 % 1013,1 hPa 0,0 l/m 0 min 2 min 0,0 UV-I 7 W/m 20,6 km/h (4 Bft)
03.08.2013 06:34 20,2 C 17,4 C 93 % 1013,1 hPa 0,2 l/m 0 min 2 min 0,0 UV-I 7 W/m 16,5 km/h (3 Bft)
03.08.2013 06:36 20,2 C 17,4 C 93 % 1012,7 hPa 0,0 l/m 0 min 2 min 0,0 UV-I 7 W/m 16,5 km/h (3 Bft)
03.08.2013 06:38 20,1 C 17,4 C 93 % 1012,6 hPa 0,0 l/m 0 min 2 min 0,0 UV-I 11 W/m 8,2 km/h (2 Bft)
03.08.2013 06:40 20,1 C 16,9 C 93 % 1013,3 hPa 0,0 l/m 0 min 2 min 0,0 UV-I 12 W/m 0,0 km/h (0 Bft)
03.08.2013 06:42 20,1 C 17,4 C 94 % 1013,5 hPa 0,0 l/m 0 min 2 min 0,0 UV-I 14 W/m 0,0 km/h (0 Bft)
03.08.2013 06:44 20,0 C 17,4 C 94 % 1013,6 hPa 0,0 l/m 0 min 2 min 0,0 UV-I 21 W/m 0,0 km/h (0 Bft)
03.08.2013 06:46 20,0 C 17,4 C 94 % 1013,6 hPa 0,0 l/m 0 min 0 min 0,0 UV-I 23 W/m 0,0 km/h (0 Bft)
03.08.2013 06:48 19,9 C 17,4 C 94 % 1013,6 hPa 0,0 l/m 0 min 0 min 0,0 UV-I 25 W/m 0,0 km/h (0 Bft)
03.08.2013 06:50 19,9 C 17,4 C 94 % 1013,6 hPa 0,0 l/m 0 min 0 min 0,0 UV-I 25 W/m 0,0 km/h (0 Bft)
03.08.2013 06:52 19,9 C 16,9 C 94 % 1013,5 hPa 0,0 l/m 0 min 0 min 0,0 UV-I 23 W/m 0,0 km/h (0 Bft)
03.08.2013 06:54 19,8 C 17,4 C 94 % 1013,5 hPa 0,0 l/m 0 min 0 min 0,0 UV-I 23 W/m 0,0 km/h (0 Bft)
03.08.2013 06:56 19,8 C 16,9 C 94 % 1013,5 hPa 0,0 l/m 0 min 0 min 0,0 UV-I 25 W/m 0,0 km/h (0 Bft)
03.08.2013 06:58 19,7 C 17,4 C 94 % 1013,5 hPa 0,0 l/m 0 min 0 min 0,0 UV-I 25 W/m 0,0 km/h (0 Bft)
03.08.2013 07:00 19,7 C 17,4 C 95 % 1013,7 hPa 0,0 l/m 0 min 0 min 0,0 UV-I 28 W/m 0,0 km/h (0 Bft)
03.08.2013 07:02 19,7 C 17,4 C 95 % 1013,7 hPa 0,0 l/m 0 min 0 min 0,0 UV-I 33 W/m 4,2 km/h (1 Bft)
03.08.2013 07:06 19,6 C 17,4 C 95 % 1013,6 hPa 0,0 l/m 0 min 2 min 0,0 UV-I 39 W/m 8,2 km/h (2 Bft)
03.08.2013 07:08 19,7 C 17,4 C 95 % 1013,6 hPa 0,0 l/m 0 min 0 min 0,0 UV-I 37 W/m 0,0 km/h (0 Bft)
03.08.2013 07:10 19,7 C 17,4 C 96 % 1013,6 hPa 0,0 l/m 0 min 0 min 0,0 UV-I 35 W/m 0,0 km/h (0 Bft)
03.08.2013 07:12 19,6 C 17,4 C 96 % 1013,6 hPa 0,0 l/m 0 min 0 min 0,0 UV-I 32 W/m 0,0 km/h (0 Bft)
03.08.2013 07:14 19,6 C 17,4 C 96 % 1013,7 hPa 0,0 l/m 0 min 0 min 0,0 UV-I 30 W/m 0,0 km/h (0 Bft)
03.08.2013 07:16 19,6 C 17,4 C 96 % 1013,8 hPa 0,0 l/m 0 min 0 min 0,0 UV-I 32 W/m 0,0 km/h (0 Bft)
03.08.2013 07:18 19,6 C 17,4 C 96 % 1013,9 hPa 0,0 l/m 0 min 0 min 0,0 UV-I 33 W/m 0,0 km/h (0 Bft)
03.08.2013 07:20 19,6 C 16,9 C 96 % 1013,9 hPa 0,0 l/m 0 min 0 min 0,0 UV-I 37 W/m 0,0 km/h (0 Bft)
03.08.2013 07:22 19,5 C 16,9 C 96 % 1014,0 hPa 0,0 l/m 0 min 0 min 0,0 UV-I 37 W/m 4,2 km/h (1 Bft)
03.08.2013 07:24 19,5 C 16,9 C 96 % 1014,1 hPa 0,0 l/m 0 min 0 min 0,0 UV-I 37 W/m 0,0 km/h (0 Bft)
03.08.2013 07:26 19,5 C 16,9 C 96 % 1014,0 hPa 0,0 l/m 0 min 0 min 0,0 UV-I 37 W/m 0,0 km/h (0 Bft)
03.08.2013 07:28 19,5 C 16,9 C 97 % 1014,0 hPa 0,0 l/m 0 min 0 min 0,0 UV-I 39 W/m 0,0 km/h (0 Bft)
03.08.2013 07:30 19,5 C 16,9 C 97 % 1014,0 hPa 0,0 l/m 0 min 0 min 0,0 UV-I 40 W/m 0,0 km/h (0 Bft)
03.08.2013 07:32 19,4 C 16,9 C 97 % 1014,0 hPa 0,0 l/m 0 min 0 min 0,0 UV-I 44 W/m 4,2 km/h (1 Bft)
03.08.2013 07:34 19,4 C 16,9 C 97 % 1013,9 hPa 0,0 l/m 0 min 0 min 0,0 UV-I 46 W/m 0,0 km/h (0 Bft)
03.08.2013 07:36 19,4 C 16,9 C 97 % 1014,0 hPa 0,0 l/m 0 min 0 min 0,0 UV-I 47 W/m 0,0 km/h (0 Bft)
03.08.2013 07:38 19,4 C 16,9 C 97 % 1014,1 hPa 0,0 l/m 0 min 0 min 0,0 UV-I 47 W/m 0,0 km/h (0 Bft)
03.08.2013 07:40 19,5 C 17,4 C 97 % 1014,1 hPa 0,0 l/m 0 min 0 min 0,0 UV-I 47 W/m 0,0 km/h (0 Bft)
03.08.2013 07:42 19,5 C 16,9 C 97 % 1014,1 hPa 0,0 l/m 0 min 0 min 0,0 UV-I 47 W/m 0,0 km/h (0 Bft)
03.08.2013 07:44 19,6 C 17,4 C 97 % 1014,2 hPa 0,0 l/m 0 min 0 min 0,0 UV-I 46 W/m 4,2 km/h (1 Bft)
03.08.2013 07:46 19,6 C 17,4 C 97 % 1014,2 hPa 0,0 l/m 0 min 0 min 0,0 UV-I 47 W/m 0,0 km/h (0 Bft)
03.08.2013 07:48 19,6 C 17,4 C 97 % 1014,2 hPa 0,0 l/m 0 min 0 min 0,0 UV-I 54 W/m 0,0 km/h (0 Bft)
03.08.2013 07:50 19,6 C 17,4 C 97 % 1014,3 hPa 0,0 l/m 0 min 0 min 0,0 UV-I 63 W/m 4,2 km/h (1 Bft)
03.08.2013 07:52 19,7 C 17,4 C 97 % 1014,4 hPa 0,0 l/m 0 min 0 min 0,0 UV-I 74 W/m 0,0 km/h (0 Bft)
03.08.2013 07:54 19,7 C 17,4 C 97 % 1014,4 hPa 0,0 l/m 0 min 0 min 0,0 UV-I 81 W/m 12,3 km/h (3 Bft)
03.08.2013 07:56 19,7 C 17,4 C 97 % 1014,4 hPa 0,0 l/m 0 min 0 min 0,0 UV-I 84 W/m 8,2 km/h (2 Bft)
03.08.2013 07:58 19,8 C 17,4 C 97 % 1014,5 hPa 0,0 l/m 0 min 0 min 0,0 UV-I 81 W/m 12,3 km/h (3 Bft)
03.08.2013 08:00 19,8 C 17,4 C 97 % 1014,4 hPa 0,0 l/m 0 min 0 min 0,0 UV-I 90 W/m 20,6 km/h (4 Bft)
03.08.2013 08:02 19,9 C 17,4 C 97 % 1014,5 hPa 0,0 l/m 0 min 0 min 0,0 UV-I 93 W/m 16,5 km/h (3 Bft)
03.08.2013 08:06 19,9 C 17,4 C 97 % 1014,4 hPa 0,0 l/m 0 min 0 min 0,0 UV-I 83 W/m 24,6 km/h (4 Bft)
03.08.2013 08:08 20,0 C 17,4 C 97 % 1014,5 hPa 0,0 l/m 0 min 0 min 0,0 UV-I 86 W/m 0,0 km/h (0 Bft)
03.08.2013 08:10 20,1 C 18,0 C 97 % 1014,5 hPa 0,0 l/m 0 min 0 min 0,0 UV-I 84 W/m 0,0 km/h (0 Bft)
03.08.2013 08:12 20,1 C 18,0 C 97 % 1014,5 hPa 0,0 l/m 0 min 0 min 0,0 UV-I 90 W/m 16,5 km/h (3 Bft)
03.08.2013 08:14 20,1 C 18,0 C 97 % 1014,4 hPa 0,0 l/m 0 min 0 min 0,0 UV-I 93 W/m 12,3 km/h (3 Bft)
03.08.2013 08:16 20,2 C 18,0 C 97 % 1014,4 hPa 0,0 l/m 0 min 0 min 0,0 UV-I 95 W/m 0,0 km/h (0 Bft)
03.08.2013 08:18 20,2 C 18,0 C 97 % 1014,4 hPa 0,0 l/m 0 min 0 min 0,0 UV-I 83 W/m 0,0 km/h (0 Bft)
03.08.2013 08:20 20,2 C 18,0 C 97 % 1014,5 hPa 0,0 l/m 0 min 0 min 0,0 UV-I 79 W/m 0,0 km/h (0 Bft)
03.08.2013 08:22 20,2 C 18,0 C 97 % 1014,5 hPa 0,0 l/m 0 min 0 min 0,0 UV-I 77 W/m 4,2 km/h (1 Bft)
03.08.2013 08:24 20,2 C 18,0 C 97 % 1014,5 hPa 0,0 l/m 0 min 0 min 0,0 UV-I 79 W/m 0,0 km/h (0 Bft)
03.08.2013 08:26 20,2 C 18,0 C 97 % 1014,5 hPa 0,0 l/m 0 min 0 min 0,0 UV-I 83 W/m 4,2 km/h (1 Bft)
03.08.2013 08:28 20,3 C 18,0 C 96 % 1014,6 hPa 0,0 l/m 0 min 0 min 0,0 UV-I 90 W/m 0,0 km/h (0 Bft)
03.08.2013 08:30 20,3 C 18,0 C 96 % 1014,6 hPa 0,0 l/m 0 min 0 min 0,0 UV-I 120 W/m 0,0 km/h (0 Bft)
03.08.2013 08:32 20,3 C 18,0 C 96 % 1014,6 hPa 0,0 l/m 2 min 0 min 0,0 UV-I 202 W/m 0,0 km/h (0 Bft)
03.08.2013 08:34 20,3 C 18,0 C 96 % 1014,7 hPa 0,0 l/m 0 min 0 min 0,0 UV-I 156 W/m 0,0 km/h (0 Bft)
03.08.2013 08:36 20,4 C 18,0 C 96 % 1014,8 hPa 0,0 l/m 0 min 0 min 0,0 UV-I 123 W/m 4,2 km/h (1 Bft)
03.08.2013 08:38 20,4 C 18,0 C 96 % 1014,8 hPa 0,0 l/m 0 min 0 min 0,0 UV-I 202 W/m 0,0 km/h (0 Bft)
03.08.2013 08:40 20,4 C 18,0 C 96 % 1014,9 hPa 0,0 l/m 2 min 0 min 0,0 UV-I 214 W/m 28,8 km/h (4 Bft)
03.08.2013 08:42 20,6 C 18,0 C 95 % 1014,9 hPa 0,0 l/m 0 min 0 min 0,0 UV-I 123 W/m 4,2 km/h (1 Bft)
03.08.2013 08:44 20,6 C 18,0 C 95 % 1014,9 hPa 0,0 l/m 0 min 0 min 0,0 UV-I 107 W/m 8,2 km/h (2 Bft)
03.08.2013 08:46 20,7 C 18,0 C 94 % 1014,9 hPa 0,0 l/m 0 min 0 min 0,0 UV-I 77 W/m 0,0 km/h (0 Bft)
03.08.2013 08:48 20,7 C 18,0 C 94 % 1015,0 hPa 0,0 l/m 0 min 0 min 0,0 UV-I 79 W/m 16,5 km/h (3 Bft)
03.08.2013 08:50 20,7 C 18,0 C 93 % 1015,0 hPa 0,0 l/m 0 min 0 min 0,0 UV-I 72 W/m 24,6 km/h (4 Bft)
03.08.2013 08:52 20,7 C 18,0 C 93 % 1015,0 hPa 0,0 l/m 0 min 0 min 0,0 UV-I 90 W/m 16,5 km/h (3 Bft)
03.08.2013 08:54 20,7 C 18,0 C 92 % 1015,0 hPa 0,0 l/m 0 min 0 min 0,0 UV-I 107 W/m 4,2 km/h (1 Bft)
03.08.2013 08:56 20,7 C 18,0 C 92 % 1015,0 hPa 0,0 l/m 0 min 0 min 0,0 UV-I 113 W/m 20,6 km/h (4 Bft)
03.08.2013 08:58 20,7 C 18,0 C 91 % 1015,0 hPa 0,0 l/m 0 min 0 min 0,0 UV-I 128 W/m 4,2 km/h (1 Bft)
03.08.2013 09:00 20,8 C 18,0 C 91 % 1015,1 hPa 0,0 l/m 0 min 0 min 0,0 UV-I 172 W/m 0,0 km/h (0 Bft)
03.08.2013 09:02 20,8 C 18,0 C 91 % 1015,1 hPa 0,0 l/m 0 min 0 min 0,0 UV-I 171 W/m 8,2 km/h (2 Bft)
03.08.2013 09:06 20,9 C 18,6 C 90 % 1015,2 hPa 0,0 l/m 2 min 0 min 0,0 UV-I 334 W/m 20,6 km/h (4 Bft)
03.08.2013 09:08 21,0 C 18,6 C 90 % 1015,2 hPa 0,0 l/m 0 min 0 min 0,0 UV-I 227 W/m 24,6 km/h (4 Bft)
03.08.2013 09:10 21,1 C 18,6 C 90 % 1015,3 hPa 0,0 l/m 2 min 0 min 0,6 UV-I 413 W/m 8,2 km/h (2 Bft)
03.08.2013 09:12 21,3 C 18,6 C 90 % 1015,2 hPa 0,0 l/m 0 min 0 min 0,0 UV-I 190 W/m 16,5 km/h (3 Bft)
03.08.2013 09:14 21,3 C 18,6 C 89 % 1015,3 hPa 0,0 l/m 0 min 0 min 0,5 UV-I 162 W/m 20,6 km/h (4 Bft)
03.08.2013 09:16 21,3 C 18,6 C 89 % 1015,3 hPa 0,0 l/m 0 min 0 min 0,5 UV-I 195 W/m 24,6 km/h (4 Bft)
03.08.2013 09:18 21,3 C 18,6 C 89 % 1015,2 hPa 0,0 l/m 2 min 0 min 0,7 UV-I 339 W/m 16,5 km/h (3 Bft)
03.08.2013 09:20 21,4 C 18,6 C 88 % 1015,3 hPa 0,0 l/m 2 min 0 min 0,7 UV-I 346 W/m 16,5 km/h (3 Bft)
03.08.2013 09:22 21,5 C 18,6 C 89 % 1015,3 hPa 0,0 l/m 2 min 0 min 0,7 UV-I 297 W/m 16,5 km/h (3 Bft)
03.08.2013 09:24 21,6 C 18,6 C 88 % 1015,3 hPa 0,0 l/m 2 min 0 min 0,8 UV-I 392 W/m 20,6 km/h (4 Bft)
03.08.2013 09:26 21,6 C 19,1 C 88 % 1015,2 hPa 0,0 l/m 2 min 0 min 0,6 UV-I 350 W/m 28,8 km/h (4 Bft)
03.08.2013 09:28 21,7 C 19,1 C 88 % 1015,2 hPa 0,0 l/m 2 min 0 min 0,6 UV-I 364 W/m 4,2 km/h (1 Bft)
03.08.2013 09:30 21,7 C 19,1 C 88 % 1015,3 hPa 0,0 l/m 2 min 0 min 0,8 UV-I 360 W/m 20,6 km/h (4 Bft)
03.08.2013 09:32 21,7 C 19,1 C 88 % 1015,3 hPa 0,0 l/m 0 min 0 min 0,8 UV-I 230 W/m 20,6 km/h (4 Bft)
03.08.2013 09:34 21,8 C 19,7 C 88 % 1015,3 hPa 0,0 l/m 2 min 0 min 0,8 UV-I 325 W/m 24,6 km/h (4 Bft)
03.08.2013 09:36 21,8 C 19,7 C 87 % 1015,3 hPa 0,0 l/m 2 min 0 min 0,8 UV-I 325 W/m 24,6 km/h (4 Bft)
03.08.2013 09:38 21,9 C 19,7 C 87 % 1015,3 hPa 0,0 l/m 2 min 0 min 1,1 UV-I 325 W/m 8,2 km/h (2 Bft)
03.08.2013 09:40 21,9 C 19,7 C 87 % 1015,3 hPa 0,0 l/m 2 min 0 min 1,0 UV-I 450 W/m 24,6 km/h (4 Bft)
03.08.2013 09:42 22,0 C 19,7 C 87 % 1015,3 hPa 0,0 l/m 2 min 0 min 1,2 UV-I 438 W/m 12,3 km/h (3 Bft)
03.08.2013 09:44 22,1 C 20,2 C 87 % 1015,3 hPa 0,0 l/m 2 min 0 min 1,1 UV-I 387 W/m 28,8 km/h (4 Bft)
03.08.2013 09:46 22,2 C 20,2 C 86 % 1015,3 hPa 0,0 l/m 2 min 0 min 0,9 UV-I 478 W/m 24,6 km/h (4 Bft)
03.08.2013 09:48 22,2 C 20,2 C 86 % 1015,4 hPa 0,0 l/m 2 min 0 min 1,3 UV-I 454 W/m 37,1 km/h (5 Bft)
03.08.2013 09:50 22,2 C 20,2 C 86 % 1015,3 hPa 0,0 l/m 2 min 0 min 1,0 UV-I 454 W/m 33,0 km/h (5 Bft)
03.08.2013 09:52 22,3 C 20,8 C 86 % 1015,3 hPa 0,0 l/m 2 min 0 min 1,0 UV-I 524 W/m 8,2 km/h (2 Bft)
03.08.2013 09:54 22,3 C 20,8 C 86 % 1015,4 hPa 0,0 l/m 2 min 0 min 1,5 UV-I 524 W/m 16,5 km/h (3 Bft)
03.08.2013 09:56 22,3 C 21,3 C 85 % 1015,5 hPa 0,0 l/m 2 min 0 min 1,4 UV-I 524 W/m 24,6 km/h (4 Bft)
03.08.2013 09:58 22,3 C 21,9 C 85 % 1015,4 hPa 0,0 l/m 2 min 0 min 1,6 UV-I 536 W/m 20,6 km/h (4 Bft)
03.08.2013 10:00 22,4 C 23,0 C 86 % 1015,4 hPa 0,0 l/m 2 min 0 min 1,6 UV-I 543 W/m 20,6 km/h (4 Bft)
03.08.2013 10:02 22,4 C 23,0 C 85 % 1015,4 hPa 0,0 l/m 2 min 0 min 1,7 UV-I 543 W/m 20,6 km/h (4 Bft)
03.08.2013 10:06 22,4 C 21,9 C 85 % 1015,5 hPa 0,0 l/m 0 min 0 min 1,0 UV-I 292 W/m 28,8 km/h (4 Bft)
03.08.2013 10:08 22,4 C 21,3 C 85 % 1015,5 hPa 0,0 l/m 0 min 0 min 0,9 UV-I 200 W/m 12,3 km/h (3 Bft)
03.08.2013 10:10 22,4 C 21,3 C 85 % 1015,6 hPa 0,0 l/m 0 min 0 min 0,7 UV-I 193 W/m 24,6 km/h (4 Bft)
03.08.2013 10:12 22,4 C 21,3 C 85 % 1015,6 hPa 0,0 l/m 0 min 0 min 0,9 UV-I 272 W/m 12,3 km/h (3 Bft)
03.08.2013 10:14 22,4 C 21,3 C 85 % 1015,6 hPa 0,0 l/m 0 min 0 min 0,8 UV-I 267 W/m 20,6 km/h (4 Bft)
03.08.2013 10:16 22,4 C 21,3 C 86 % 1015,7 hPa 0,0 l/m 0 min 0 min 0,9 UV-I 248 W/m 20,6 km/h (4 Bft)
03.08.2013 10:18 22,4 C 21,3 C 85 % 1015,7 hPa 0,0 l/m 0 min 0 min 1,0 UV-I 213 W/m 28,8 km/h (4 Bft)
03.08.2013 10:20 22,4 C 21,3 C 85 % 1015,7 hPa 0,0 l/m 0 min 0 min 1,0 UV-I 214 W/m 24,6 km/h (4 Bft)
03.08.2013 10:22 22,3 C 21,3 C 85 % 1015,7 hPa 0,0 l/m 0 min 0 min 1,7 UV-I 214 W/m 33,0 km/h (5 Bft)
03.08.2013 10:24 22,3 C 21,3 C 84 % 1015,8 hPa 0,0 l/m 0 min 0 min 1,2 UV-I 214 W/m 20,6 km/h (4 Bft)
03.08.2013 10:26 22,3 C 20,8 C 84 % 1015,9 hPa 0,0 l/m 0 min 0 min 1,2 UV-I 135 W/m 12,3 km/h (3 Bft)
03.08.2013 10:28 22,3 C 21,9 C 85 % 1016,0 hPa 0,0 l/m 0 min 0 min 1,3 UV-I 135 W/m 37,1 km/h (5 Bft)
03.08.2013 10:30 22,4 C 23,6 C 84 % 1016,0 hPa 0,0 l/m 2 min 0 min 2,3 UV-I 577 W/m 33,0 km/h (5 Bft)
03.08.2013 10:32 22,5 C 23,6 C 83 % 1016,1 hPa 0,0 l/m 0 min 0 min 2,3 UV-I 229 W/m 24,6 km/h (4 Bft)
03.08.2013 10:34 22,6 C 23,6 C 83 % 1016,1 hPa 0,0 l/m 0 min 0 min 2,3 UV-I 229 W/m 16,5 km/h (3 Bft)
03.08.2013 10:36 22,7 C 24,1 C 83 % 1016,1 hPa 0,0 l/m 2 min 0 min 2,4 UV-I 584 W/m 16,5 km/h (3 Bft)
03.08.2013 10:38 22,8 C 24,7 C 83 % 1016,2 hPa 0,0 l/m 2 min 0 min 2,4 UV-I 592 W/m 12,3 km/h (3 Bft)
03.08.2013 10:40 22,9 C 25,2 C 82 % 1016,2 hPa 0,0 l/m 2 min 0 min 2,5 UV-I 592 W/m 16,5 km/h (3 Bft)
03.08.2013 10:42 23,1 C 25,2 C 81 % 1016,3 hPa 0,0 l/m 2 min 0 min 2,5 UV-I 612 W/m 20,6 km/h (4 Bft)
03.08.2013 10:44 23,3 C 25,8 C 81 % 1016,2 hPa 0,0 l/m 2 min 0 min 2,6 UV-I 638 W/m 28,8 km/h (4 Bft)
03.08.2013 10:46 23,4 C 26,3 C 80 % 1016,2 hPa 0,0 l/m 2 min 0 min 2,7 UV-I 654 W/m 24,6 km/h (4 Bft)
03.08.2013 10:48 23,6 C 26,3 C 81 % 1016,3 hPa 0,0 l/m 2 min 0 min 1,8 UV-I 679 W/m 16,5 km/h (3 Bft)
03.08.2013 10:50 23,8 C 26,9 C 80 % 1016,3 hPa 0,0 l/m 2 min 0 min 2,7 UV-I 744 W/m 45,3 km/h (6 Bft)
03.08.2013 10:52 23,9 C 25,8 C 78 % 1016,3 hPa 0,0 l/m 2 min 0 min 1,6 UV-I 744 W/m 20,6 km/h (4 Bft)
03.08.2013 10:54 23,9 C 24,1 C 78 % 1016,3 hPa 0,0 l/m 2 min 0 min 1,4 UV-I 744 W/m 16,5 km/h (3 Bft)
03.08.2013 10:56 23,8 C 23,0 C 78 % 1016,3 hPa 0,0 l/m 0 min 0 min 1,2 UV-I 141 W/m 8,2 km/h (2 Bft)
03.08.2013 10:58 23,6 C 23,0 C 78 % 1016,3 hPa 0,0 l/m 0 min 0 min 1,6 UV-I 171 W/m 20,6 km/h (4 Bft)
03.08.2013 11:00 23,4 C 22,4 C 78 % 1016,4 hPa 0,0 l/m 0 min 0 min 1,5 UV-I 188 W/m 12,3 km/h (3 Bft)
03.08.2013 11:02 23,3 C 23,0 C 79 % 1016,4 hPa 0,0 l/m 2 min 0 min 3,0 UV-I 654 W/m 24,6 km/h (4 Bft)
03.08.2013 11:06 23,6 C 25,8 C 79 % 1016,4 hPa 0,0 l/m 2 min 0 min 3,1 UV-I 673 W/m 37,1 km/h (5 Bft)
03.08.2013 11:08 23,8 C 25,8 C 77 % 1016,4 hPa 0,0 l/m 2 min 0 min 3,2 UV-I 714 W/m 24,6 km/h (4 Bft)
03.08.2013 11:10 23,9 C 25,8 C 75 % 1016,5 hPa 0,0 l/m 2 min 0 min 3,2 UV-I 735 W/m 28,8 km/h (4 Bft)
03.08.2013 11:12 24,1 C 26,3 C 75 % 1016,4 hPa 0,0 l/m 2 min 0 min 3,2 UV-I 680 W/m 16,5 km/h (3 Bft)
03.08.2013 11:14 24,3 C 26,9 C 74 % 1016,5 hPa 0,0 l/m 2 min 0 min 3,2 UV-I 656 W/m 28,8 km/h (4 Bft)
03.08.2013 11:16 24,6 C 26,9 C 75 % 1016,5 hPa 0,0 l/m 2 min 0 min 3,2 UV-I 659 W/m 16,5 km/h (3 Bft)
03.08.2013 11:18 24,7 C 26,3 C 72 % 1016,6 hPa 0,0 l/m 2 min 0 min 3,2 UV-I 657 W/m 16,5 km/h (3 Bft)
03.08.2013 11:20 24,7 C 26,3 C 73 % 1016,5 hPa 0,0 l/m 2 min 0 min 3,4 UV-I 737 W/m 12,3 km/h (3 Bft)
03.08.2013 11:22 24,8 C 25,8 C 73 % 1016,5 hPa 0,0 l/m 2 min 0 min 3,4 UV-I 717 W/m 4,2 km/h (1 Bft)
03.08.2013 11:24 24,9 C 25,2 C 73 % 1016,5 hPa 0,0 l/m 2 min 0 min 3,4 UV-I 740 W/m 28,8 km/h (4 Bft)
03.08.2013 11:26 25,1 C 24,7 C 72 % 1016,5 hPa 0,0 l/m 2 min 0 min 3,5 UV-I 691 W/m 24,6 km/h (4 Bft)
03.08.2013 11:28 25,1 C 24,7 C 71 % 1016,6 hPa 0,0 l/m 2 min 0 min 3,6 UV-I 726 W/m 20,6 km/h (4 Bft)
03.08.2013 11:30 25,2 C 25,2 C 72 % 1016,6 hPa 0,0 l/m 2 min 0 min 3,7 UV-I 772 W/m 24,6 km/h (4 Bft)
03.08.2013 11:32 25,2 C 25,2 C 70 % 1016,6 hPa 0,0 l/m 2 min 0 min 3,7 UV-I 717 W/m 24,6 km/h (4 Bft)
03.08.2013 11:34 25,1 C 26,3 C 69 % 1016,7 hPa 0,0 l/m 2 min 0 min 3,7 UV-I 705 W/m 41,1 km/h (6 Bft)
03.08.2013 11:36 24,9 C 26,3 C 69 % 1016,7 hPa 0,0 l/m 2 min 0 min 3,3 UV-I 707 W/m 28,8 km/h (4 Bft)
03.08.2013 11:38 24,8 C 26,3 C 70 % 1016,7 hPa 0,0 l/m 2 min 0 min 3,8 UV-I 705 W/m 33,0 km/h (5 Bft)
03.08.2013 11:40 24,7 C 26,3 C 71 % 1016,8 hPa 0,0 l/m 2 min 0 min 2,2 UV-I 742 W/m 20,6 km/h (4 Bft)
03.08.2013 11:42 24,7 C 25,8 C 70 % 1016,8 hPa 0,0 l/m 2 min 0 min 3,0 UV-I 742 W/m 20,6 km/h (4 Bft)
03.08.2013 11:44 24,6 C 25,2 C 69 % 1016,8 hPa 0,0 l/m 0 min 0 min 3,8 UV-I 132 W/m 33,0 km/h (5 Bft)
03.08.2013 11:46 24,6 C 26,3 C 69 % 1016,9 hPa 0,0 l/m 2 min 0 min 3,9 UV-I 731 W/m 16,5 km/h (3 Bft)
03.08.2013 11:48 24,7 C 26,9 C 68 % 1016,9 hPa 0,0 l/m 2 min 0 min 3,8 UV-I 721 W/m 33,0 km/h (5 Bft)
03.08.2013 11:50 24,7 C 26,3 C 66 % 1016,9 hPa 0,0 l/m 2 min 0 min 4,0 UV-I 724 W/m 33,0 km/h (5 Bft)
03.08.2013 11:52 24,8 C 27,4 C 67 % 1016,9 hPa 0,0 l/m 2 min 0 min 4,0 UV-I 742 W/m 16,5 km/h (3 Bft)
03.08.2013 11:54 24,8 C 26,9 C 67 % 1017,0 hPa 0,0 l/m 2 min 0 min 3,9 UV-I 742 W/m 33,0 km/h (5 Bft)
03.08.2013 11:56 24,7 C 25,8 C 67 % 1016,9 hPa 0,0 l/m 0 min 0 min 4,0 UV-I 137 W/m 37,1 km/h (5 Bft)
03.08.2013 11:58 24,7 C 26,9 C 67 % 1017,1 hPa 0,0 l/m 2 min 0 min 4,1 UV-I 754 W/m 24,6 km/h (4 Bft)
03.08.2013 12:00 24,7 C 27,4 C 67 % 1017,1 hPa 0,0 l/m 2 min 0 min 4,1 UV-I 749 W/m 33,0 km/h (5 Bft)
03.08.2013 12:02 25,0 C 28,0 C 68 % 1017,1 hPa 0,0 l/m 2 min 0 min 4,2 UV-I 763 W/m 20,6 km/h (4 Bft)
03.08.2013 12:06 25,5 C 29,1 C 66 % 1017,1 hPa 0,0 l/m 2 min 0 min 4,3 UV-I 791 W/m 20,6 km/h (4 Bft)
03.08.2013 12:08 25,7 C 29,1 C 65 % 1017,1 hPa 0,0 l/m 2 min 0 min 4,3 UV-I 777 W/m 24,6 km/h (4 Bft)
03.08.2013 12:10 25,8 C 29,1 C 63 % 1017,1 hPa 0,0 l/m 2 min 0 min 4,4 UV-I 759 W/m 33,0 km/h (5 Bft)
03.08.2013 12:12 25,7 C 28,6 C 62 % 1017,2 hPa 0,0 l/m 2 min 0 min 4,3 UV-I 759 W/m 28,8 km/h (4 Bft)
03.08.2013 12:14 25,6 C 28,0 C 62 % 1017,1 hPa 0,0 l/m 2 min 0 min 4,5 UV-I 772 W/m 33,0 km/h (5 Bft)
03.08.2013 12:16 25,6 C 28,0 C 63 % 1017,3 hPa 0,0 l/m 2 min 0 min 4,5 UV-I 763 W/m 24,6 km/h (4 Bft)
03.08.2013 12:18 25,5 C 28,6 C 61 % 1017,3 hPa 0,0 l/m 2 min 0 min 4,5 UV-I 791 W/m 33,0 km/h (5 Bft)
03.08.2013 12:20 25,4 C 28,0 C 61 % 1017,3 hPa 0,0 l/m 2 min 0 min 4,5 UV-I 793 W/m 28,8 km/h (4 Bft)
03.08.2013 12:22 25,4 C 28,0 C 63 % 1017,3 hPa 0,0 l/m 2 min 0 min 4,5 UV-I 775 W/m 28,8 km/h (4 Bft)
03.08.2013 12:24 25,6 C 28,0 C 63 % 1017,3 hPa 0,0 l/m 2 min 0 min 3,4 UV-I 831 W/m 20,6 km/h (4 Bft)
03.08.2013 12:26 25,6 C 26,9 C 63 % 1017,3 hPa 0,0 l/m 2 min 0 min 2,1 UV-I 831 W/m 28,8 km/h (4 Bft)
03.08.2013 12:28 25,3 C 27,4 C 62 % 1017,3 hPa 0,0 l/m 2 min 0 min 4,6 UV-I 835 W/m 33,0 km/h (5 Bft)
03.08.2013 12:30 25,3 C 28,0 C 62 % 1017,3 hPa 0,0 l/m 2 min 0 min 4,5 UV-I 786 W/m 24,6 km/h (4 Bft)
03.08.2013 12:32 25,4 C 28,0 C 60 % 1017,3 hPa 0,0 l/m 2 min 0 min 4,6 UV-I 765 W/m 33,0 km/h (5 Bft)
03.08.2013 12:34 25,4 C 27,4 C 60 % 1017,3 hPa 0,0 l/m 2 min 0 min 4,6 UV-I 765 W/m 49,4 km/h (6 Bft)
03.08.2013 12:36 25,4 C 27,4 C 59 % 1017,3 hPa 0,0 l/m 2 min 0 min 4,6 UV-I 770 W/m 20,6 km/h (4 Bft)
03.08.2013 12:38 25,4 C 27,4 C 58 % 1017,3 hPa 0,0 l/m 2 min 0 min 4,7 UV-I 773 W/m 33,0 km/h (5 Bft)
03.08.2013 12:40 25,4 C 26,3 C 60 % 1017,3 hPa 0,0 l/m 2 min 0 min 4,6 UV-I 773 W/m 24,6 km/h (4 Bft)
03.08.2013 12:42 25,6 C 26,9 C 62 % 1017,3 hPa 0,0 l/m 2 min 0 min 4,7 UV-I 782 W/m 33,0 km/h (5 Bft)
03.08.2013 12:44 25,6 C 27,4 C 60 % 1017,3 hPa 0,0 l/m 2 min 0 min 4,8 UV-I 789 W/m 33,0 km/h (5 Bft)
03.08.2013 12:46 25,7 C 27,4 C 59 % 1017,4 hPa 0,0 l/m 2 min 0 min 4,7 UV-I 807 W/m 37,1 km/h (5 Bft)
03.08.2013 12:48 25,8 C 28,0 C 59 % 1017,4 hPa 0,0 l/m 2 min 0 min 4,9 UV-I 837 W/m 16,5 km/h (3 Bft)
03.08.2013 12:50 25,8 C 27,4 C 58 % 1017,4 hPa 0,0 l/m 2 min 0 min 4,8 UV-I 749 W/m 28,8 km/h (4 Bft)
03.08.2013 12:52 25,8 C 26,9 C 59 % 1017,4 hPa 0,0 l/m 2 min 0 min 4,7 UV-I 773 W/m 24,6 km/h (4 Bft)
03.08.2013 12:54 25,8 C 26,9 C 59 % 1017,4 hPa 0,0 l/m 2 min 0 min 4,9 UV-I 854 W/m 20,6 km/h (4 Bft)
03.08.2013 12:56 25,9 C 26,3 C 59 % 1017,4 hPa 0,0 l/m 2 min 0 min 4,8 UV-I 842 W/m 28,8 km/h (4 Bft)
03.08.2013 12:58 25,8 C 26,3 C 58 % 1017,3 hPa 0,0 l/m 2 min 0 min 4,7 UV-I 803 W/m 33,0 km/h (5 Bft)
03.08.2013 13:00 25,9 C 26,3 C 59 % 1017,3 hPa 0,0 l/m 2 min 0 min 4,4 UV-I 849 W/m 20,6 km/h (4 Bft)
03.08.2013 13:02 26,2 C 26,9 C 59 % 1017,3 hPa 0,0 l/m 2 min 0 min 4,1 UV-I 877 W/m 20,6 km/h (4 Bft)
03.08.2013 13:06 26,2 C 26,3 C 58 % 1017,4 hPa 0,0 l/m 2 min 0 min 2,9 UV-I 622 W/m 28,8 km/h (4 Bft)
03.08.2013 13:08 26,1 C 25,8 C 58 % 1017,4 hPa 0,0 l/m 2 min 0 min 2,8 UV-I 469 W/m 12,3 km/h (3 Bft)
03.08.2013 13:10 26,1 C 25,8 C 58 % 1017,5 hPa 0,0 l/m 2 min 0 min 2,8 UV-I 693 W/m 12,3 km/h (3 Bft)
03.08.2013 13:12 25,8 C 25,8 C 58 % 1017,4 hPa 0,0 l/m 2 min 0 min 2,5 UV-I 585 W/m 20,6 km/h (4 Bft)
03.08.2013 13:14 25,7 C 25,2 C 58 % 1017,5 hPa 0,0 l/m 2 min 0 min 2,4 UV-I 492 W/m 33,0 km/h (5 Bft)
03.08.2013 13:16 25,6 C 25,2 C 59 % 1017,4 hPa 0,0 l/m 2 min 0 min 2,5 UV-I 580 W/m 20,6 km/h (4 Bft)
03.08.2013 13:18 25,6 C 25,2 C 58 % 1017,5 hPa 0,0 l/m 2 min 0 min 2,5 UV-I 599 W/m 41,1 km/h (6 Bft)
03.08.2013 13:20 25,4 C 25,2 C 60 % 1017,5 hPa 0,0 l/m 2 min 0 min 2,5 UV-I 596 W/m 16,5 km/h (3 Bft)
03.08.2013 13:22 25,4 C 25,2 C 61 % 1017,4 hPa 0,0 l/m 2 min 0 min 2,7 UV-I 930 W/m 20,6 km/h (4 Bft)
03.08.2013 13:24 25,5 C 25,8 C 59 % 1017,5 hPa 0,0 l/m 2 min 0 min 2,6 UV-I 837 W/m 28,8 km/h (4 Bft)
03.08.2013 13:26 25,8 C 25,8 C 60 % 1017,5 hPa 0,0 l/m 2 min 0 min 2,6 UV-I 795 W/m 20,6 km/h (4 Bft)
03.08.2013 13:28 25,8 C 25,8 C 61 % 1017,5 hPa 0,0 l/m 2 min 0 min 2,6 UV-I 768 W/m 12,3 km/h (3 Bft)
03.08.2013 13:30 25,9 C 25,8 C 61 % 1017,5 hPa 0,0 l/m 2 min 0 min 2,7 UV-I 896 W/m 4,2 km/h (1 Bft)
03.08.2013 13:32 26,2 C 26,3 C 59 % 1017,4 hPa 0,0 l/m 2 min 0 min 2,6 UV-I 867 W/m 37,1 km/h (5 Bft)
03.08.2013 13:34 26,2 C 25,8 C 58 % 1017,5 hPa 0,0 l/m 2 min 0 min 2,6 UV-I 840 W/m 33,0 km/h (5 Bft)
03.08.2013 13:36 26,4 C 25,8 C 59 % 1017,5 hPa 0,0 l/m 2 min 0 min 2,5 UV-I 828 W/m 33,0 km/h (5 Bft)
03.08.2013 13:38 26,3 C 25,8 C 57 % 1017,5 hPa 0,0 l/m 2 min 0 min 2,4 UV-I 823 W/m 37,1 km/h (5 Bft)
03.08.2013 13:40 26,2 C 25,8 C 57 % 1017,6 hPa 0,0 l/m 2 min 0 min 2,4 UV-I 809 W/m 28,8 km/h (4 Bft)
03.08.2013 13:42 26,3 C 25,8 C 58 % 1017,6 hPa 0,0 l/m 2 min 0 min 2,4 UV-I 826 W/m 16,5 km/h (3 Bft)
03.08.2013 13:44 26,3 C 25,8 C 59 % 1017,6 hPa 0,0 l/m 2 min 0 min 2,4 UV-I 838 W/m 24,6 km/h (4 Bft)
03.08.2013 13:46 26,4 C 25,8 C 58 % 1017,5 hPa 0,0 l/m 2 min 0 min 2,5 UV-I 856 W/m 28,8 km/h (4 Bft)
03.08.2013 13:48 26,5 C 25,8 C 57 % 1017,6 hPa 0,0 l/m 2 min 0 min 2,8 UV-I 861 W/m 28,8 km/h (4 Bft)
03.08.2013 13:50 26,6 C 25,8 C 58 % 1017,5 hPa 0,0 l/m 2 min 0 min 2,5 UV-I 875 W/m 12,3 km/h (3 Bft)
03.08.2013 13:52 26,4 C 25,2 C 56 % 1017,5 hPa 0,0 l/m 0 min 0 min 2,4 UV-I 230 W/m 37,1 km/h (5 Bft)
03.08.2013 13:54 26,1 C 24,7 C 57 % 1017,7 hPa 0,0 l/m 0 min 0 min 2,2 UV-I 230 W/m 24,6 km/h (4 Bft)
03.08.2013 13:56 25,8 C 24,1 C 58 % 1017,7 hPa 0,0 l/m 0 min 0 min 2,1 UV-I 176 W/m 45,3 km/h (6 Bft)
03.08.2013 13:58 25,4 C 23,6 C 59 % 1017,6 hPa 0,0 l/m 0 min 0 min 1,9 UV-I 151 W/m 12,3 km/h (3 Bft)
03.08.2013 14:00 25,3 C 23,6 C 60 % 1017,8 hPa 0,0 l/m 0 min 0 min 2,7 UV-I 209 W/m 45,3 km/h (6 Bft)
03.08.2013 14:02 25,2 C 23,6 C 61 % 1017,8 hPa 0,0 l/m 0 min 0 min 4,9 UV-I 232 W/m 12,3 km/h (3 Bft)
03.08.2013 14:06 26,0 C 25,8 C 60 % 1017,9 hPa 0,0 l/m 2 min 0 min 5,3 UV-I 977 W/m 33,0 km/h (5 Bft)
03.08.2013 14:08 26,3 C 26,3 C 58 % 1017,7 hPa 0,0 l/m 2 min 0 min 5,5 UV-I 988 W/m 20,6 km/h (4 Bft)
03.08.2013 14:10 26,7 C 26,9 C 57 % 1017,9 hPa 0,0 l/m 2 min 0 min 5,4 UV-I 1018 W/m 24,6 km/h (4 Bft)
03.08.2013 14:12 27,1 C 26,9 C 54 % 1017,8 hPa 0,0 l/m 2 min 0 min 5,3 UV-I 1014 W/m 41,1 km/h (6 Bft)
03.08.2013 14:14 27,2 C 26,9 C 56 % 1017,9 hPa 0,0 l/m 2 min 0 min 5,3 UV-I 1027 W/m 45,3 km/h (6 Bft)
03.08.2013 14:16 27,2 C 26,3 C 54 % 1017,8 hPa 0,0 l/m 2 min 0 min 5,1 UV-I 729 W/m 12,3 km/h (3 Bft)
03.08.2013 14:18 27,3 C 26,3 C 56 % 1017,9 hPa 0,0 l/m 2 min 0 min 5,2 UV-I 729 W/m 20,6 km/h (4 Bft)
03.08.2013 14:20 27,3 C 26,3 C 55 % 1017,9 hPa 0,0 l/m 2 min 0 min 2,5 UV-I 976 W/m 28,8 km/h (4 Bft)
03.08.2013 14:22 27,0 C 25,8 C 54 % 1017,9 hPa 0,0 l/m 0 min 0 min 5,1 UV-I 229 W/m 16,5 km/h (3 Bft)
03.08.2013 14:24 27,0 C 26,3 C 53 % 1017,9 hPa 0,0 l/m 0 min 0 min 3,9 UV-I 229 W/m 24,6 km/h (4 Bft)
03.08.2013 14:26 27,0 C 26,3 C 52 % 1017,8 hPa 0,0 l/m 2 min 0 min 5,0 UV-I 874 W/m 37,1 km/h (5 Bft)
03.08.2013 14:28 27,1 C 26,3 C 54 % 1017,9 hPa 0,0 l/m 2 min 0 min 4,0 UV-I 823 W/m 16,5 km/h (3 Bft)
03.08.2013 14:30 27,1 C 25,8 C 53 % 1018,0 hPa 0,0 l/m 0 min 0 min 2,0 UV-I 163 W/m 12,3 km/h (3 Bft)
03.08.2013 14:32 26,7 C 25,2 C 52 % 1017,9 hPa 0,0 l/m 0 min 0 min 2,2 UV-I 190 W/m 24,6 km/h (4 Bft)
03.08.2013 14:34 26,3 C 25,2 C 54 % 1018,0 hPa 0,0 l/m 2 min 0 min 4,9 UV-I 874 W/m 37,1 km/h (5 Bft)
03.08.2013 14:36 26,5 C 25,8 C 56 % 1018,1 hPa 0,0 l/m 2 min 0 min 4,9 UV-I 849 W/m 24,6 km/h (4 Bft)
03.08.2013 14:38 26,6 C 25,8 C 52 % 1018,1 hPa 0,0 l/m 2 min 0 min 4,6 UV-I 768 W/m 24,6 km/h (4 Bft)
03.08.2013 14:40 26,6 C 25,8 C 54 % 1018,0 hPa 0,0 l/m 0 min 0 min 3,3 UV-I 413 W/m 12,3 km/h (3 Bft)
03.08.2013 14:42 26,6 C 25,8 C 52 % 1018,0 hPa 0,0 l/m 0 min 0 min 4,3 UV-I 413 W/m 28,8 km/h (4 Bft)
03.08.2013 14:44 26,4 C 25,8 C 55 % 1017,9 hPa 0,0 l/m 2 min 0 min 3,8 UV-I 838 W/m 20,6 km/h (4 Bft)
03.08.2013 14:46 26,3 C 25,2 C 54 % 1018,0 hPa 0,0 l/m 0 min 0 min 2,1 UV-I 257 W/m 28,8 km/h (4 Bft)
03.08.2013 14:48 26,0 C 24,7 C 54 % 1018,0 hPa 0,0 l/m 0 min 0 min 2,5 UV-I 336 W/m 16,5 km/h (3 Bft)
03.08.2013 14:50 25,9 C 25,2 C 55 % 1018,2 hPa 0,0 l/m 0 min 0 min 4,2 UV-I 332 W/m 0,0 km/h (0 Bft)
03.08.2013 14:52 26,2 C 25,8 C 56 % 1018,2 hPa 0,0 l/m 2 min 0 min 5,3 UV-I 1013 W/m 12,3 km/h (3 Bft)
03.08.2013 14:54 26,7 C 26,3 C 56 % 1018,3 hPa 0,0 l/m 2 min 0 min 4,5 UV-I 986 W/m 24,6 km/h (4 Bft)
03.08.2013 14:56 27,1 C 26,9 C 55 % 1018,2 hPa 0,0 l/m 2 min 0 min 4,7 UV-I 884 W/m 12,3 km/h (3 Bft)
03.08.2013 14:58 27,2 C 26,9 C 55 % 1018,2 hPa 0,0 l/m 2 min 0 min 4,0 UV-I 745 W/m 28,8 km/h (4 Bft)
03.08.2013 15:00 27,2 C 26,9 C 54 % 1018,2 hPa 0,0 l/m 2 min 0 min 3,8 UV-I 700 W/m 24,6 km/h (4 Bft)
03.08.2013 15:02 27,2 C 26,3 C 53 % 1018,1 hPa 0,0 l/m 2 min 0 min 3,7 UV-I 650 W/m 12,3 km/h (3 Bft)
03.08.2013 15:06 26,9 C 26,3 C 53 % 1018,2 hPa 0,0 l/m 2 min 0 min 4,0 UV-I 749 W/m 24,6 km/h (4 Bft)
03.08.2013 15:08 26,9 C 26,3 C 52 % 1018,3 hPa 0,0 l/m 2 min 0 min 3,8 UV-I 793 W/m 33,0 km/h (5 Bft)
03.08.2013 15:10 26,7 C 25,8 C 51 % 1018,3 hPa 0,0 l/m 2 min 0 min 4,0 UV-I 893 W/m 28,8 km/h (4 Bft)
03.08.2013 15:12 26,7 C 26,3 C 54 % 1018,3 hPa 0,0 l/m 2 min 0 min 4,0 UV-I 870 W/m 24,6 km/h (4 Bft)
03.08.2013 15:14 26,8 C 26,3 C 54 % 1018,3 hPa 0,0 l/m 2 min 0 min 4,7 UV-I 895 W/m 8,2 km/h (2 Bft)
03.08.2013 15:16 27,1 C 26,3 C 52 % 1018,3 hPa 0,0 l/m 2 min 0 min 4,3 UV-I 823 W/m 16,5 km/h (3 Bft)
03.08.2013 15:18 26,8 C 25,8 C 51 % 1018,3 hPa 0,0 l/m 2 min 0 min 2,4 UV-I 438 W/m 24,6 km/h (4 Bft)
03.08.2013 15:20 26,7 C 25,8 C 52 % 1018,4 hPa 0,0 l/m 2 min 0 min 2,3 UV-I 483 W/m 20,6 km/h (4 Bft)
03.08.2013 15:22 26,6 C 25,8 C 54 % 1018,4 hPa 0,0 l/m 2 min 0 min 4,6 UV-I 483 W/m 16,5 km/h (3 Bft)
03.08.2013 15:24 26,7 C 26,3 C 53 % 1018,5 hPa 0,0 l/m 2 min 0 min 4,2 UV-I 828 W/m 16,5 km/h (3 Bft)
03.08.2013 15:26 26,8 C 26,3 C 54 % 1018,5 hPa 0,0 l/m 2 min 0 min 4,1 UV-I 744 W/m 8,2 km/h (2 Bft)
03.08.2013 15:28 26,8 C 26,3 C 53 % 1018,5 hPa 0,0 l/m 2 min 0 min 4,4 UV-I 828 W/m 16,5 km/h (3 Bft)
03.08.2013 15:30 26,9 C 26,3 C 54 % 1018,4 hPa 0,0 l/m 2 min 0 min 4,3 UV-I 812 W/m 12,3 km/h (3 Bft)
03.08.2013 15:32 27,1 C 26,3 C 52 % 1018,4 hPa 0,0 l/m 2 min 0 min 4,3 UV-I 807 W/m 41,1 km/h (6 Bft)
03.08.2013 15:34 27,0 C 25,8 C 53 % 1018,4 hPa 0,0 l/m 2 min 0 min 2,2 UV-I 807 W/m 33,0 km/h (5 Bft)
03.08.2013 15:36 26,8 C 25,8 C 52 % 1018,3 hPa 0,0 l/m 0 min 0 min 4,0 UV-I 250 W/m 4,2 km/h (1 Bft)
03.08.2013 15:38 26,8 C 25,8 C 53 % 1018,4 hPa 0,0 l/m 2 min 0 min 4,0 UV-I 891 W/m 16,5 km/h (3 Bft)
03.08.2013 15:40 27,0 C 26,3 C 54 % 1018,4 hPa 0,0 l/m 2 min 0 min 4,3 UV-I 877 W/m 12,3 km/h (3 Bft)
03.08.2013 15:42 27,2 C 26,9 C 52 % 1018,4 hPa 0,0 l/m 2 min 0 min 4,2 UV-I 870 W/m 8,2 km/h (2 Bft)
03.08.2013 15:44 27,3 C 26,3 C 52 % 1018,3 hPa 0,0 l/m 2 min 0 min 3,3 UV-I 673 W/m 8,2 km/h (2 Bft)
03.08.2013 15:46 27,4 C 26,3 C 50 % 1018,3 hPa 0,0 l/m 2 min 0 min 3,5 UV-I 633 W/m 20,6 km/h (4 Bft)
03.08.2013 15:48 27,2 C 26,3 C 50 % 1018,4 hPa 0,0 l/m 2 min 0 min 3,2 UV-I 606 W/m 24,6 km/h (4 Bft)
03.08.2013 15:50 27,2 C 26,3 C 50 % 1018,4 hPa 0,0 l/m 2 min 0 min 4,1 UV-I 828 W/m 20,6 km/h (4 Bft)
03.08.2013 15:52 27,1 C 26,3 C 52 % 1018,4 hPa 0,0 l/m 2 min 0 min 3,8 UV-I 766 W/m 20,6 km/h (4 Bft)
03.08.2013 15:54 27,2 C 25,8 C 50 % 1018,4 hPa 0,0 l/m 2 min 0 min 3,8 UV-I 719 W/m 20,6 km/h (4 Bft)
03.08.2013 15:56 27,2 C 25,8 C 52 % 1018,5 hPa 0,0 l/m 2 min 0 min 3,7 UV-I 712 W/m 33,0 km/h (5 Bft)
03.08.2013 15:58 27,2 C 25,8 C 50 % 1018,4 hPa 0,0 l/m 2 min 0 min 3,7 UV-I 708 W/m 16,5 km/h (3 Bft)
03.08.2013 16:00 27,2 C 25,8 C 50 % 1018,4 hPa 0,0 l/m 2 min 0 min 3,6 UV-I 703 W/m 45,3 km/h (6 Bft)
03.08.2013 16:02 27,1 C 25,8 C 50 % 1018,5 hPa 0,0 l/m 2 min 0 min 3,6 UV-I 696 W/m 28,8 km/h (4 Bft)
03.08.2013 16:06 26,9 C 25,8 C 49 % 1018,6 hPa 0,0 l/m 2 min 0 min 3,5 UV-I 673 W/m 24,6 km/h (4 Bft)
03.08.2013 16:08 27,0 C 25,8 C 49 % 1018,5 hPa 0,0 l/m 2 min 0 min 3,3 UV-I 679 W/m 20,6 km/h (4 Bft)
03.08.2013 16:10 27,1 C 25,8 C 49 % 1018,5 hPa 0,0 l/m 2 min 0 min 3,4 UV-I 705 W/m 24,6 km/h (4 Bft)
03.08.2013 16:12 27,1 C 25,8 C 49 % 1018,5 hPa 0,0 l/m 2 min 0 min 3,3 UV-I 705 W/m 16,5 km/h (3 Bft)
03.08.2013 16:14 27,1 C 25,8 C 48 % 1018,5 hPa 0,0 l/m 2 min 0 min 3,4 UV-I 703 W/m 24,6 km/h (4 Bft)
03.08.2013 16:16 26,9 C 25,8 C 48 % 1018,5 hPa 0,0 l/m 2 min 0 min 3,3 UV-I 694 W/m 37,1 km/h (5 Bft)
03.08.2013 16:18 26,8 C 25,8 C 49 % 1018,6 hPa 0,0 l/m 2 min 0 min 3,3 UV-I 691 W/m 20,6 km/h (4 Bft)
03.08.2013 16:20 26,8 C 25,8 C 50 % 1018,5 hPa 0,0 l/m 2 min 0 min 3,2 UV-I 677 W/m 12,3 km/h (3 Bft)
03.08.2013 16:22 26,8 C 25,8 C 49 % 1018,8 hPa 0,0 l/m 2 min 0 min 3,2 UV-I 679 W/m 28,8 km/h (4 Bft)
03.08.2013 16:24 26,8 C 25,8 C 49 % 1018,7 hPa 0,0 l/m 2 min 0 min 3,1 UV-I 673 W/m 24,6 km/h (4 Bft)
03.08.2013 16:26 26,7 C 26,3 C 48 % 1018,7 hPa 0,0 l/m 2 min 0 min 3,1 UV-I 696 W/m 20,6 km/h (4 Bft)
03.08.2013 16:28 26,7 C 26,3 C 50 % 1018,7 hPa 0,0 l/m 2 min 0 min 2,1 UV-I 701 W/m 4,2 km/h (1 Bft)
03.08.2013 16:30 26,8 C 25,8 C 48 % 1018,8 hPa 0,0 l/m 2 min 0 min 3,0 UV-I 689 W/m 28,8 km/h (4 Bft)
03.08.2013 16:32 26,7 C 25,8 C 49 % 1018,7 hPa 0,0 l/m 2 min 0 min 3,0 UV-I 677 W/m 20,6 km/h (4 Bft)
03.08.2013 16:34 26,8 C 26,3 C 49 % 1018,7 hPa 0,0 l/m 2 min 0 min 1,9 UV-I 673 W/m 4,2 km/h (1 Bft)
03.08.2013 16:36 26,8 C 26,3 C 49 % 1018,7 hPa 0,0 l/m 2 min 0 min 2,4 UV-I 673 W/m 16,5 km/h (3 Bft)
03.08.2013 16:38 26,7 C 25,8 C 49 % 1018,8 hPa 0,0 l/m 2 min 0 min 2,9 UV-I 673 W/m 20,6 km/h (4 Bft)
03.08.2013 16:40 26,6 C 26,3 C 51 % 1018,7 hPa 0,0 l/m 2 min 0 min 2,9 UV-I 675 W/m 37,1 km/h (5 Bft)
03.08.2013 16:42 26,5 C 26,3 C 50 % 1018,8 hPa 0,0 l/m 2 min 0 min 2,8 UV-I 656 W/m 20,6 km/h (4 Bft)
03.08.2013 16:44 26,7 C 26,9 C 49 % 1018,8 hPa 0,0 l/m 2 min 0 min 2,8 UV-I 650 W/m 20,6 km/h (4 Bft)
03.08.2013 16:46 26,7 C 26,3 C 48 % 1018,8 hPa 0,0 l/m 2 min 0 min 2,7 UV-I 642 W/m 33,0 km/h (5 Bft)
03.08.2013 16:48 26,7 C 25,8 C 48 % 1018,8 hPa 0,0 l/m 2 min 0 min 2,6 UV-I 622 W/m 24,6 km/h (4 Bft)
03.08.2013 16:50 26,5 C 25,8 C 49 % 1018,8 hPa 0,0 l/m 2 min 0 min 2,6 UV-I 615 W/m 33,0 km/h (5 Bft)
03.08.2013 16:52 26,6 C 25,2 C 50 % 1018,8 hPa 0,0 l/m 2 min 0 min 2,5 UV-I 605 W/m 4,2 km/h (1 Bft)
03.08.2013 16:54 26,7 C 25,8 C 50 % 1018,8 hPa 0,0 l/m 2 min 0 min 2,5 UV-I 606 W/m 24,6 km/h (4 Bft)
03.08.2013 16:56 26,7 C 25,8 C 48 % 1018,8 hPa 0,0 l/m 2 min 0 min 2,4 UV-I 599 W/m 33,0 km/h (5 Bft)
03.08.2013 16:58 26,6 C 25,8 C 49 % 1018,7 hPa 0,0 l/m 2 min 0 min 2,4 UV-I 598 W/m 28,8 km/h (4 Bft)
03.08.2013 17:00 26,6 C 25,8 C 49 % 1018,8 hPa 0,0 l/m 2 min 0 min 2,3 UV-I 592 W/m 16,5 km/h (3 Bft)
03.08.2013 17:02 26,7 C 25,8 C 49 % 1018,8 hPa 0,0 l/m 2 min 0 min 2,3 UV-I 587 W/m 24,6 km/h (4 Bft)
03.08.2013 17:06 26,7 C 25,8 C 50 % 1018,9 hPa 0,0 l/m 2 min 0 min 2,2 UV-I 566 W/m 16,5 km/h (3 Bft)
03.08.2013 17:08 26,7 C 25,8 C 48 % 1018,8 hPa 0,0 l/m 2 min 0 min 2,2 UV-I 580 W/m 24,6 km/h (4 Bft)
03.08.2013 17:10 26,6 C 25,2 C 49 % 1018,8 hPa 0,0 l/m 2 min 0 min 2,2 UV-I 585 W/m 33,0 km/h (5 Bft)
03.08.2013 17:12 26,4 C 25,2 C 48 % 1018,8 hPa 0,0 l/m 2 min 0 min 2,1 UV-I 582 W/m 16,5 km/h (3 Bft)
03.08.2013 17:14 26,4 C 24,7 C 49 % 1018,9 hPa 0,0 l/m 2 min 0 min 2,0 UV-I 563 W/m 28,8 km/h (4 Bft)
03.08.2013 17:16 26,4 C 24,7 C 51 % 1018,8 hPa 0,0 l/m 2 min 0 min 2,0 UV-I 559 W/m 28,8 km/h (4 Bft)
03.08.2013 17:18 26,4 C 24,7 C 48 % 1018,9 hPa 0,0 l/m 2 min 0 min 2,0 UV-I 566 W/m 28,8 km/h (4 Bft)
03.08.2013 17:20 26,3 C 24,1 C 50 % 1018,8 hPa 0,0 l/m 2 min 0 min 2,0 UV-I 568 W/m 8,2 km/h (2 Bft)
03.08.2013 17:22 26,3 C 24,1 C 48 % 1018,8 hPa 0,0 l/m 2 min 0 min 2,0 UV-I 554 W/m 4,2 km/h (1 Bft)
03.08.2013 17:24 26,4 C 24,1 C 50 % 1018,8 hPa 0,0 l/m 2 min 0 min 1,9 UV-I 550 W/m 16,5 km/h (3 Bft)
03.08.2013 17:26 26,5 C 24,1 C 49 % 1018,8 hPa 0,0 l/m 2 min 0 min 1,9 UV-I 540 W/m 24,6 km/h (4 Bft)
03.08.2013 17:28 26,4 C 24,1 C 49 % 1018,9 hPa 0,0 l/m 2 min 0 min 1,8 UV-I 527 W/m 20,6 km/h (4 Bft)
03.08.2013 17:30 26,4 C 24,1 C 48 % 1018,9 hPa 0,0 l/m 2 min 0 min 1,8 UV-I 519 W/m 20,6 km/h (4 Bft)
03.08.2013 17:32 26,3 C 24,1 C 46 % 1018,9 hPa 0,0 l/m 2 min 0 min 1,7 UV-I 517 W/m 20,6 km/h (4 Bft)
03.08.2013 17:34 26,3 C 23,6 C 48 % 1019,0 hPa 0,0 l/m 2 min 0 min 1,7 UV-I 519 W/m 20,6 km/h (4 Bft)
03.08.2013 17:36 26,2 C 23,6 C 49 % 1019,0 hPa 0,0 l/m 2 min 0 min 1,6 UV-I 503 W/m 28,8 km/h (4 Bft)
03.08.2013 17:38 26,1 C 23,6 C 50 % 1019,0 hPa 0,0 l/m 2 min 0 min 1,6 UV-I 503 W/m 4,2 km/h (1 Bft)
03.08.2013 17:40 26,1 C 23,6 C 50 % 1019,0 hPa 0,0 l/m 2 min 0 min 1,6 UV-I 519 W/m 24,6 km/h (4 Bft)
03.08.2013 17:42 26,0 C 23,6 C 50 % 1019,0 hPa 0,0 l/m 2 min 0 min 0,9 UV-I 527 W/m 16,5 km/h (3 Bft)
03.08.2013 17:44 25,9 C 23,6 C 50 % 1019,0 hPa 0,0 l/m 0 min 0 min 1,5 UV-I 128 W/m 4,2 km/h (1 Bft)
03.08.2013 17:46 25,8 C 23,6 C 51 % 1019,0 hPa 0,0 l/m 2 min 0 min 1,5 UV-I 501 W/m 12,3 km/h (3 Bft)
03.08.2013 17:48 25,7 C 23,6 C 50 % 1019,0 hPa 0,0 l/m 2 min 0 min 1,4 UV-I 499 W/m 16,5 km/h (3 Bft)
03.08.2013 17:50 25,7 C 23,6 C 51 % 1019,0 hPa 0,0 l/m 2 min 0 min 1,4 UV-I 496 W/m 4,2 km/h (1 Bft)
03.08.2013 17:52 25,7 C 23,6 C 52 % 1019,0 hPa 0,0 l/m 2 min 0 min 1,4 UV-I 482 W/m 4,2 km/h (1 Bft)
03.08.2013 17:54 25,8 C 23,6 C 50 % 1019,0 hPa 0,0 l/m 2 min 0 min 1,3 UV-I 461 W/m 8,2 km/h (2 Bft)
03.08.2013 17:56 25,8 C 23,6 C 50 % 1018,9 hPa 0,0 l/m 2 min 0 min 1,3 UV-I 466 W/m 33,0 km/h (5 Bft)
03.08.2013 17:58 25,8 C 23,6 C 50 % 1019,0 hPa 0,0 l/m 2 min 0 min 1,2 UV-I 468 W/m 16,5 km/h (3 Bft)
03.08.2013 18:00 25,8 C 23,0 C 51 % 1018,9 hPa 0,0 l/m 2 min 0 min 1,1 UV-I 468 W/m 16,5 km/h (3 Bft)
03.08.2013 18:02 25,7 C 23,6 C 53 % 1018,9 hPa 0,0 l/m 2 min 0 min 1,2 UV-I 327 W/m 4,2 km/h (1 Bft)
03.08.2013 18:06 25,8 C 23,6 C 51 % 1018,9 hPa 0,0 l/m 2 min 0 min 1,0 UV-I 448 W/m 16,5 km/h (3 Bft)
03.08.2013 18:08 25,9 C 23,6 C 51 % 1018,9 hPa 0,0 l/m 2 min 0 min 0,9 UV-I 396 W/m 20,6 km/h (4 Bft)
03.08.2013 18:10 25,9 C 23,6 C 51 % 1018,9 hPa 0,0 l/m 0 min 0 min 0,7 UV-I 193 W/m 4,2 km/h (1 Bft)
03.08.2013 18:12 25,8 C 23,6 C 51 % 1019,0 hPa 0,0 l/m 0 min 0 min 0,7 UV-I 186 W/m 20,6 km/h (4 Bft)
03.08.2013 18:14 25,7 C 23,6 C 50 % 1018,9 hPa 0,0 l/m 0 min 0 min 0,6 UV-I 148 W/m 16,5 km/h (3 Bft)
03.08.2013 18:16 25,7 C 23,6 C 52 % 1018,9 hPa 0,0 l/m 0 min 0 min 0,6 UV-I 149 W/m 4,2 km/h (1 Bft)
03.08.2013 18:18 25,9 C 23,6 C 52 % 1018,9 hPa 0,0 l/m 0 min 0 min 0,6 UV-I 204 W/m 4,2 km/h (1 Bft)
03.08.2013 18:20 26,1 C 23,6 C 52 % 1019,0 hPa 0,0 l/m 2 min 0 min 0,7 UV-I 237 W/m 4,2 km/h (1 Bft)
03.08.2013 18:22 26,1 C 23,6 C 50 % 1019,0 hPa 0,0 l/m 0 min 0 min 0,5 UV-I 234 W/m 4,2 km/h (1 Bft)
03.08.2013 18:24 26,0 C 23,6 C 49 % 1019,1 hPa 0,0 l/m 2 min 0 min 0,5 UV-I 262 W/m 24,6 km/h (4 Bft)
03.08.2013 18:26 25,8 C 23,0 C 51 % 1019,0 hPa 0,0 l/m 0 min 0 min 0,6 UV-I 93 W/m 12,3 km/h (3 Bft)
03.08.2013 18:28 25,7 C 23,0 C 50 % 1019,0 hPa 0,0 l/m 0 min 0 min 0,6 UV-I 70 W/m 20,6 km/h (4 Bft)
03.08.2013 18:30 25,5 C 23,0 C 50 % 1019,1 hPa 0,0 l/m 2 min 0 min 0,5 UV-I 373 W/m 16,5 km/h (3 Bft)
03.08.2013 18:32 25,4 C 23,0 C 51 % 1019,0 hPa 0,0 l/m 2 min 0 min 0,6 UV-I 292 W/m 4,2 km/h (1 Bft)
03.08.2013 18:34 25,4 C 23,0 C 52 % 1019,0 hPa 0,0 l/m 2 min 0 min 0,0 UV-I 313 W/m 8,2 km/h (2 Bft)
03.08.2013 18:36 25,5 C 23,0 C 51 % 1019,0 hPa 0,0 l/m 2 min 0 min 0,0 UV-I 346 W/m 20,6 km/h (4 Bft)
03.08.2013 18:38 25,6 C 23,0 C 52 % 1019,1 hPa 0,0 l/m 2 min 0 min 0,0 UV-I 264 W/m 24,6 km/h (4 Bft)
03.08.2013 18:40 25,6 C 23,0 C 52 % 1019,0 hPa 0,0 l/m 0 min 0 min 0,0 UV-I 102 W/m 4,2 km/h (1 Bft)
03.08.2013 18:42 25,6 C 23,0 C 52 % 1019,0 hPa 0,0 l/m 0 min 0 min 0,0 UV-I 120 W/m 4,2 km/h (1 Bft)
03.08.2013 18:44 25,6 C 23,0 C 52 % 1019,0 hPa 0,0 l/m 0 min 0 min 0,0 UV-I 125 W/m 12,3 km/h (3 Bft)
03.08.2013 18:46 25,6 C 23,0 C 51 % 1019,1 hPa 0,0 l/m 0 min 0 min 0,0 UV-I 91 W/m 0,0 km/h (0 Bft)
03.08.2013 18:48 25,6 C 23,0 C 52 % 1019,1 hPa 0,0 l/m 0 min 0 min 0,0 UV-I 95 W/m 4,2 km/h (1 Bft)
03.08.2013 18:50 25,6 C 23,0 C 52 % 1019,0 hPa 0,0 l/m 0 min 0 min 0,0 UV-I 70 W/m 12,3 km/h (3 Bft)
03.08.2013 18:52 25,5 C 23,0 C 52 % 1019,0 hPa 0,0 l/m 0 min 0 min 0,0 UV-I 70 W/m 4,2 km/h (1 Bft)
03.08.2013 18:56 25,3 C 23,0 C 51 % 1019,1 hPa 0,0 l/m 0 min 0 min 0,0 UV-I 56 W/m 0,0 km/h (0 Bft)
03.08.2013 18:57 25,3 C 22,4 C 52 % 1019,1 hPa 0,0 l/m 0 min 0 min 0,0 UV-I 51 W/m 12,3 km/h (3 Bft)
03.08.2013 18:58 25,3 C 22,4 C 52 % 1019,1 hPa 0,0 l/m 0 min 0 min 0,0 UV-I 47 W/m 16,5 km/h (3 Bft)
03.08.2013 19:04 24,7 C 21,9 C 53 % 1019,1 hPa 0,0 l/m 0 min 0 min 0,0 UV-I 37 W/m 16,5 km/h (3 Bft)
03.08.2013 19:06 24,6 C 21,9 C 53 % 1019,2 hPa 0,0 l/m 0 min 0 min 0,0 UV-I 39 W/m 4,2 km/h (1 Bft)
03.08.2013 19:08 24,4 C 21,9 C 53 % 1019,2 hPa 0,0 l/m 0 min 0 min 0,0 UV-I 42 W/m 4,2 km/h (1 Bft)
03.08.2013 19:10 24,4 C 21,9 C 54 % 1019,2 hPa 0,0 l/m 0 min 0 min 0,0 UV-I 46 W/m 0,0 km/h (0 Bft)
03.08.2013 19:12 24,4 C 21,9 C 55 % 1019,2 hPa 0,0 l/m 0 min 0 min 0,0 UV-I 51 W/m 4,2 km/h (1 Bft)
03.08.2013 19:14 24,5 C 21,9 C 54 % 1019,2 hPa 0,0 l/m 0 min 0 min 0,0 UV-I 63 W/m 4,2 km/h (1 Bft)
03.08.2013 19:16 24,6 C 21,9 C 54 % 1019,2 hPa 0,0 l/m 0 min 0 min 0,0 UV-I 70 W/m 0,0 km/h (0 Bft)
03.08.2013 19:18 24,6 C 21,9 C 53 % 1019,2 hPa 0,0 l/m 0 min 0 min 0,0 UV-I 74 W/m 12,3 km/h (3 Bft)
03.08.2013 19:20 24,7 C 21,9 C 53 % 1019,3 hPa 0,0 l/m 0 min 0 min 0,0 UV-I 69 W/m 4,2 km/h (1 Bft)
03.08.2013 19:22 24,7 C 21,9 C 54 % 1019,3 hPa 0,0 l/m 0 min 0 min 0,0 UV-I 54 W/m 8,2 km/h (2 Bft)
03.08.2013 19:24 24,7 C 21,9 C 53 % 1019,3 hPa 0,0 l/m 0 min 0 min 0,0 UV-I 49 W/m 16,5 km/h (3 Bft)
03.08.2013 19:26 24,7 C 21,9 C 52 % 1019,3 hPa 0,0 l/m 0 min 0 min 0,0 UV-I 42 W/m 4,2 km/h (1 Bft)
03.08.2013 19:28 24,6 C 21,9 C 53 % 1019,3 hPa 0,0 l/m 0 min 0 min 0,0 UV-I 40 W/m 4,2 km/h (1 Bft)
03.08.2013 19:30 24,6 C 21,9 C 53 % 1019,4 hPa 0,0 l/m 0 min 0 min 0,0 UV-I 39 W/m 12,3 km/h (3 Bft)
03.08.2013 19:32 24,5 C 21,9 C 52 % 1019,4 hPa 0,0 l/m 0 min 0 min 0,0 UV-I 39 W/m 4,2 km/h (1 Bft)
03.08.2013 19:34 24,4 C 21,9 C 53 % 1019,3 hPa 0,0 l/m 0 min 0 min 0,0 UV-I 39 W/m 4,2 km/h (1 Bft)
03.08.2013 19:36 24,4 C 21,3 C 53 % 1019,3 hPa 0,0 l/m 0 min 0 min 0,0 UV-I 39 W/m 0,0 km/h (0 Bft)
03.08.2013 19:38 24,4 C 21,3 C 53 % 1019,3 hPa 0,0 l/m 0 min 0 min 0,0 UV-I 40 W/m 0,0 km/h (0 Bft)
03.08.2013 19:40 24,4 C 21,3 C 53 % 1019,3 hPa 0,0 l/m 0 min 0 min 0,0 UV-I 40 W/m 0,0 km/h (0 Bft)
03.08.2013 19:42 24,3 C 21,3 C 54 % 1019,3 hPa 0,0 l/m 0 min 0 min 0,0 UV-I 40 W/m 8,2 km/h (2 Bft)
03.08.2013 19:44 24,4 C 21,3 C 53 % 1019,3 hPa 0,0 l/m 0 min 0 min 0,0 UV-I 39 W/m 4,2 km/h (1 Bft)
03.08.2013 19:46 24,3 C 21,3 C 53 % 1019,3 hPa 0,0 l/m 0 min 0 min 0,0 UV-I 37 W/m 0,0 km/h (0 Bft)
03.08.2013 19:48 24,3 C 21,3 C 52 % 1019,3 hPa 0,0 l/m 0 min 0 min 0,0 UV-I 37 W/m 4,2 km/h (1 Bft)
03.08.2013 19:50 24,3 C 21,3 C 53 % 1019,3 hPa 0,0 l/m 0 min 0 min 0,0 UV-I 35 W/m 4,2 km/h (1 Bft)
03.08.2013 19:52 24,3 C 21,3 C 52 % 1019,4 hPa 0,0 l/m 0 min 0 min 0,0 UV-I 35 W/m 16,5 km/h (3 Bft)
03.08.2013 19:54 24,3 C 21,3 C 52 % 1019,4 hPa 0,0 l/m 0 min 0 min 0,0 UV-I 35 W/m 4,2 km/h (1 Bft)
03.08.2013 19:56 24,2 C 21,3 C 52 % 1019,4 hPa 0,0 l/m 0 min 0 min 0,0 UV-I 37 W/m 0,0 km/h (0 Bft)
03.08.2013 19:58 24,1 C 21,9 C 53 % 1019,4 hPa 0,0 l/m 0 min 0 min 0,0 UV-I 33 W/m 4,2 km/h (1 Bft)
03.08.2013 20:00 24,1 C 21,3 C 52 % 1019,4 hPa 0,0 l/m 0 min 0 min 0,0 UV-I 33 W/m 4,2 km/h (1 Bft)
03.08.2013 20:02 24,0 C 21,3 C 53 % 1019,5 hPa 0,0 l/m 0 min 0 min 0,0 UV-I 33 W/m 0,0 km/h (0 Bft)
03.08.2013 20:06 23,9 C 21,3 C 53 % 1019,4 hPa 0,0 l/m 0 min 0 min 0,0 UV-I 39 W/m 0,0 km/h (0 Bft)
03.08.2013 20:08 23,8 C 20,8 C 54 % 1019,5 hPa 0,0 l/m 0 min 0 min 0,0 UV-I 40 W/m 0,0 km/h (0 Bft)
03.08.2013 20:10 23,8 C 20,8 C 54 % 1019,5 hPa 0,0 l/m 0 min 0 min 0,0 UV-I 40 W/m 0,0 km/h (0 Bft)
03.08.2013 20:12 23,8 C 20,8 C 55 % 1019,5 hPa 0,0 l/m 0 min 0 min 0,0 UV-I 40 W/m 0,0 km/h (0 Bft)
03.08.2013 20:14 23,7 C 20,8 C 55 % 1019,5 hPa 0,0 l/m 0 min 0 min 0,0 UV-I 40 W/m 0,0 km/h (0 Bft)
03.08.2013 20:16 23,7 C 20,8 C 55 % 1019,5 hPa 0,0 l/m 0 min 0 min 0,0 UV-I 39 W/m 0,0 km/h (0 Bft)
03.08.2013 20:18 23,6 C 20,8 C 55 % 1019,5 hPa 0,0 l/m 0 min 0 min 0,0 UV-I 35 W/m 0,0 km/h (0 Bft)
03.08.2013 20:20 23,6 C 20,8 C 56 % 1019,5 hPa 0,0 l/m 0 min 0 min 0,0 UV-I 33 W/m 0,0 km/h (0 Bft)
03.08.2013 20:22 23,5 C 20,8 C 56 % 1019,5 hPa 0,0 l/m 0 min 0 min 0,0 UV-I 32 W/m 0,0 km/h (0 Bft)
03.08.2013 20:24 23,4 C 20,8 C 56 % 1019,5 hPa 0,0 l/m 0 min 0 min 0,0 UV-I 28 W/m 0,0 km/h (0 Bft)
03.08.2013 20:26 23,3 C 20,2 C 57 % 1019,5 hPa 0,0 l/m 0 min 0 min 0,0 UV-I 30 W/m 0,0 km/h (0 Bft)
03.08.2013 20:28 23,3 C 20,2 C 56 % 1019,5 hPa 0,0 l/m 0 min 0 min 0,0 UV-I 28 W/m 0,0 km/h (0 Bft)
03.08.2013 20:30 23,3 C 20,2 C 58 % 1019,5 hPa 0,0 l/m 0 min 0 min 0,0 UV-I 30 W/m 0,0 km/h (0 Bft)
03.08.2013 20:32 23,2 C 20,2 C 57 % 1019,5 hPa 0,0 l/m 0 min 0 min 0,0 UV-I 30 W/m 0,0 km/h (0 Bft)
03.08.2013 20:34 23,1 C 20,2 C 57 % 1019,5 hPa 0,0 l/m 0 min 0 min 0,0 UV-I 30 W/m 0,0 km/h (0 Bft)
03.08.2013 20:36 23,1 C 20,2 C 57 % 1019,5 hPa 0,0 l/m 0 min 0 min 0,0 UV-I 30 W/m 0,0 km/h (0 Bft)
03.08.2013 20:38 23,0 C 20,2 C 58 % 1019,6 hPa 0,0 l/m 0 min 0 min 0,0 UV-I 28 W/m 0,0 km/h (0 Bft)
03.08.2013 20:40 22,9 C 20,2 C 58 % 1019,5 hPa 0,0 l/m 0 min 0 min 0,0 UV-I 26 W/m 0,0 km/h (0 Bft)
03.08.2013 20:42 22,9 C 20,2 C 58 % 1019,5 hPa 0,0 l/m 0 min 0 min 0,0 UV-I 25 W/m 0,0 km/h (0 Bft)
03.08.2013 20:44 22,8 C 19,7 C 59 % 1019,6 hPa 0,0 l/m 0 min 0 min 0,0 UV-I 23 W/m 0,0 km/h (0 Bft)
03.08.2013 20:46 22,7 C 19,7 C 60 % 1019,6 hPa 0,0 l/m 0 min 0 min 0,0 UV-I 21 W/m 0,0 km/h (0 Bft)
03.08.2013 20:48 22,7 C 19,7 C 60 % 1019,6 hPa 0,0 l/m 0 min 0 min 0,0 UV-I 19 W/m 0,0 km/h (0 Bft)
03.08.2013 20:50 22,6 C 19,7 C 60 % 1019,6 hPa 0,0 l/m 0 min 0 min 0,0 UV-I 18 W/m 0,0 km/h (0 Bft)
03.08.2013 20:52 22,5 C 19,1 C 60 % 1019,6 hPa 0,0 l/m 0 min 0 min 0,0 UV-I 16 W/m 0,0 km/h (0 Bft)
03.08.2013 20:54 22,4 C 19,1 C 60 % 1019,6 hPa 0,0 l/m 0 min 0 min 0,0 UV-I 14 W/m 0,0 km/h (0 Bft)
03.08.2013 20:56 22,4 C 19,1 C 60 % 1019,7 hPa 0,0 l/m 0 min 0 min 0,0 UV-I 14 W/m 0,0 km/h (0 Bft)
03.08.2013 20:58 22,3 C 19,1 C 61 % 1019,7 hPa 0,0 l/m 0 min 0 min 0,0 UV-I 12 W/m 0,0 km/h (0 Bft)
03.08.2013 21:00 22,3 C 18,6 C 61 % 1019,8 hPa 0,0 l/m 0 min 0 min 0,0 UV-I 11 W/m 0,0 km/h (0 Bft)
03.08.2013 21:02 22,2 C 18,6 C 62 % 1019,8 hPa 0,0 l/m 0 min 0 min 0,0 UV-I 11 W/m 0,0 km/h (0 Bft)
03.08.2013 21:06 22,1 C 18,6 C 62 % 1019,9 hPa 0,0 l/m 0 min 0 min 0,0 UV-I 9 W/m 0,0 km/h (0 Bft)
03.08.2013 21:08 21,9 C 18,6 C 62 % 1019,8 hPa 0,0 l/m 0 min 0 min 0,0 UV-I 9 W/m 0,0 km/h (0 Bft)
03.08.2013 21:10 21,8 C 18,0 C 62 % 1019,9 hPa 0,0 l/m 0 min 0 min 0,0 UV-I 7 W/m 0,0 km/h (0 Bft)
03.08.2013 21:12 21,8 C 18,0 C 62 % 1020,0 hPa 0,0 l/m 0 min 0 min 0,0 UV-I 0 W/m 0,0 km/h (0 Bft)
03.08.2013 21:14 21,7 C 18,0 C 63 % 1020,0 hPa 0,0 l/m 0 min 0 min 0,0 UV-I 0 W/m 0,0 km/h (0 Bft)
03.08.2013 21:16 21,7 C 18,0 C 63 % 1020,0 hPa 0,0 l/m 0 min 0 min 0,0 UV-I 0 W/m 0,0 km/h (0 Bft)
03.08.2013 21:18 21,6 C 18,0 C 65 % 1020,1 hPa 0,0 l/m 0 min 0 min 0,0 UV-I 0 W/m 0,0 km/h (0 Bft)
03.08.2013 21:20 21,4 C 18,0 C 64 % 1020,1 hPa 0,0 l/m 0 min 0 min 0,0 UV-I 0 W/m 0,0 km/h (0 Bft)
03.08.2013 21:22 21,3 C 17,4 C 65 % 1020,1 hPa 0,0 l/m 0 min 0 min 0,0 UV-I 0 W/m 0,0 km/h (0 Bft)
03.08.2013 21:24 21,3 C 17,4 C 65 % 1020,2 hPa 0,0 l/m 0 min 0 min 0,0 UV-I 0 W/m 0,0 km/h (0 Bft)
03.08.2013 21:26 21,2 C 17,4 C 66 % 1020,2 hPa 0,0 l/m 0 min 0 min 0,0 UV-I 0 W/m 0,0 km/h (0 Bft)
03.08.2013 21:28 21,1 C 17,4 C 66 % 1020,2 hPa 0,0 l/m 0 min 0 min 0,0 UV-I 0 W/m 0,0 km/h (0 Bft)
03.08.2013 21:30 21,0 C 17,4 C 66 % 1020,2 hPa 0,0 l/m 0 min 0 min 0,0 UV-I 0 W/m 0,0 km/h (0 Bft)
03.08.2013 21:32 20,9 C 17,4 C 67 % 1020,3 hPa 0,0 l/m 0 min 0 min 0,0 UV-I 0 W/m 0,0 km/h (0 Bft)
03.08.2013 21:34 20,8 C 17,4 C 67 % 1020,3 hPa 0,0 l/m 0 min 0 min 0,0 UV-I 0 W/m 0,0 km/h (0 Bft)
03.08.2013 21:36 20,8 C 17,4 C 67 % 1020,4 hPa 0,0 l/m 0 min 0 min 0,0 UV-I 0 W/m 0,0 km/h (0 Bft)
03.08.2013 21:38 20,8 C 16,9 C 67 % 1020,4 hPa 0,0 l/m 0 min 0 min 0,0 UV-I 0 W/m 0,0 km/h (0 Bft)
03.08.2013 21:40 20,8 C 16,9 C 67 % 1020,5 hPa 0,0 l/m 0 min 0 min 0,0 UV-I 0 W/m 0,0 km/h (0 Bft)
03.08.2013 21:42 20,7 C 16,9 C 67 % 1020,4 hPa 0,0 l/m 0 min 0 min 0,0 UV-I 0 W/m 0,0 km/h (0 Bft)
03.08.2013 21:44 20,7 C 16,9 C 67 % 1020,4 hPa 0,0 l/m 0 min 0 min 0,0 UV-I 0 W/m 0,0 km/h (0 Bft)
03.08.2013 21:46 20,6 C 16,9 C 68 % 1020,5 hPa 0,0 l/m 0 min 0 min 0,0 UV-I 0 W/m 0,0 km/h (0 Bft)
03.08.2013 21:48 20,6 C 16,9 C 67 % 1020,4 hPa 0,0 l/m 0 min 0 min 0,0 UV-I 0 W/m 0,0 km/h (0 Bft)
03.08.2013 21:50 20,5 C 16,9 C 68 % 1020,6 hPa 0,0 l/m 0 min 0 min 0,0 UV-I 0 W/m 0,0 km/h (0 Bft)
03.08.2013 21:52 20,5 C 16,9 C 68 % 1020,6 hPa 0,0 l/m 0 min 0 min 0,0 UV-I 0 W/m 0,0 km/h (0 Bft)
03.08.2013 21:54 20,4 C 16,9 C 68 % 1020,7 hPa 0,0 l/m 0 min 0 min 0,0 UV-I 0 W/m 0,0 km/h (0 Bft)
03.08.2013 21:56 20,4 C 16,9 C 68 % 1020,7 hPa 0,0 l/m 0 min 0 min 0,0 UV-I 0 W/m 0,0 km/h (0 Bft)
03.08.2013 21:58 20,3 C 16,9 C 68 % 1020,7 hPa 0,0 l/m 0 min 0 min 0,0 UV-I 0 W/m 0,0 km/h (0 Bft)
03.08.2013 22:00 20,3 C 16,9 C 68 % 1020,7 hPa 0,0 l/m 0 min 0 min 0,0 UV-I 0 W/m 0,0 km/h (0 Bft)
03.08.2013 22:02 20,2 C 16,9 C 69 % 1020,8 hPa 0,0 l/m 0 min 0 min 0,0 UV-I 0 W/m 0,0 km/h (0 Bft)
03.08.2013 22:06 20,1 C 16,3 C 69 % 1020,7 hPa 0,0 l/m 0 min 0 min 0,0 UV-I 0 W/m 0,0 km/h (0 Bft)
03.08.2013 22:08 20,0 C 16,3 C 70 % 1020,7 hPa 0,0 l/m 0 min 0 min 0,0 UV-I 0 W/m 0,0 km/h (0 Bft)
03.08.2013 22:10 19,9 C 16,3 C 70 % 1020,7 hPa 0,0 l/m 0 min 0 min 0,0 UV-I 0 W/m 0,0 km/h (0 Bft)
03.08.2013 22:12 19,9 C 16,3 C 70 % 1020,7 hPa 0,0 l/m 0 min 0 min 0,0 UV-I 0 W/m 0,0 km/h (0 Bft)
03.08.2013 22:14 19,8 C 16,3 C 70 % 1020,7 hPa 0,0 l/m 0 min 0 min 0,0 UV-I 0 W/m 0,0 km/h (0 Bft)
03.08.2013 22:16 19,8 C 16,3 C 70 % 1020,7 hPa 0,0 l/m 0 min 0 min 0,0 UV-I 0 W/m 0,0 km/h (0 Bft)
03.08.2013 22:18 19,7 C 16,3 C 70 % 1020,7 hPa 0,0 l/m 0 min 0 min 0,0 UV-I 0 W/m 0,0 km/h (0 Bft)
03.08.2013 22:20 19,7 C 16,3 C 70 % 1020,6 hPa 0,0 l/m 0 min 0 min 0,0 UV-I 0 W/m 0,0 km/h (0 Bft)
03.08.2013 22:22 19,7 C 16,3 C 70 % 1020,7 hPa 0,0 l/m 0 min 0 min 0,0 UV-I 0 W/m 0,0 km/h (0 Bft)
03.08.2013 22:24 19,7 C 16,3 C 71 % 1020,7 hPa 0,0 l/m 0 min 0 min 0,0 UV-I 0 W/m 0,0 km/h (0 Bft)
03.08.2013 22:26 19,6 C 16,3 C 71 % 1020,7 hPa 0,0 l/m 0 min 0 min 0,0 UV-I 0 W/m 0,0 km/h (0 Bft)
03.08.2013 22:28 19,5 C 16,3 C 72 % 1020,7 hPa 0,0 l/m 0 min 0 min 0,0 UV-I 0 W/m 0,0 km/h (0 Bft)
03.08.2013 22:30 19,4 C 16,3 C 72 % 1020,7 hPa 0,0 l/m 0 min 0 min 0,0 UV-I 0 W/m 0,0 km/h (0 Bft)
03.08.2013 22:31 19,4 C 16,8 C 72 % 1020,7 hPa 0,0 l/m 0 min 0 min 0,0 UV-I 0 W/m 0,0 km/h (0 Bft)
03.08.2013 22:32 19,4 C 16,8 C 72 % 1020,7 hPa 0,0 l/m 0 min 0 min 0,0 UV-I 0 W/m 0,0 km/h (0 Bft)
03.08.2013 22:33 19,3 C 16,8 C 72 % 1020,7 hPa 0,0 l/m 0 min 0 min 0,0 UV-I 0 W/m 0,0 km/h (0 Bft)
03.08.2013 22:34 19,3 C 17,3 C 72 % 1020,7 hPa 0,0 l/m 0 min 0 min 0,0 UV-I 0 W/m 0,0 km/h (0 Bft)
03.08.2013 22:35 19,3 C 17,3 C 72 % 1020,7 hPa 0,0 l/m 0 min 0 min 0,0 UV-I 0 W/m 0,0 km/h (0 Bft)
03.08.2013 22:36 19,3 C 17,3 C 72 % 1020,7 hPa 0,0 l/m 0 min 0 min 0,0 UV-I 0 W/m 0,0 km/h (0 Bft)
03.08.2013 22:37 19,3 C 17,3 C 72 % 1020,8 hPa 0,0 l/m 0 min 0 min 0,0 UV-I 0 W/m 0,0 km/h (0 Bft)
03.08.2013 22:38 19,3 C 17,3 C 72 % 1020,8 hPa 0,0 l/m 0 min 0 min 0,0 UV-I 0 W/m 0,0 km/h (0 Bft)
03.08.2013 22:39 19,3 C 17,3 C 72 % 1020,8 hPa 0,0 l/m 0 min 0 min 0,0 UV-I 0 W/m 0,0 km/h (0 Bft)
03.08.2013 22:40 19,3 C 16,8 C 72 % 1020,7 hPa 0,0 l/m 0 min 0 min 0,0 UV-I 0 W/m 0,0 km/h (0 Bft)
03.08.2013 22:41 19,2 C 16,8 C 72 % 1020,7 hPa 0,0 l/m 0 min 0 min 0,0 UV-I 0 W/m 0,0 km/h (0 Bft)
03.08.2013 22:42 19,2 C 16,8 C 72 % 1020,7 hPa 0,0 l/m 0 min 0 min 0,0 UV-I 0 W/m 0,0 km/h (0 Bft)
03.08.2013 22:43 19,2 C 16,8 C 72 % 1020,7 hPa 0,0 l/m 0 min 0 min 0,0 UV-I 0 W/m 0,0 km/h (0 Bft)
03.08.2013 22:44 19,2 C 16,8 C 72 % 1020,7 hPa 0,0 l/m 0 min 0 min 0,0 UV-I 0 W/m 0,0 km/h (0 Bft)
03.08.2013 22:45 19,1 C 16,8 C 72 % 1020,8 hPa 0,0 l/m 0 min 0 min 0,0 UV-I 0 W/m 0,0 km/h (0 Bft)
03.08.2013 22:46 19,2 C 16,8 C 72 % 1020,7 hPa 0,0 l/m 0 min 0 min 0,0 UV-I 0 W/m 0,0 km/h (0 Bft)
03.08.2013 22:47 19,1 C 16,8 C 72 % 1020,8 hPa 0,0 l/m 0 min 0 min 0,0 UV-I 0 W/m 0,0 km/h (0 Bft)
03.08.2013 22:48 19,1 C 16,8 C 72 % 1020,7 hPa 0,0 l/m 0 min 0 min 0,0 UV-I 0 W/m 0,0 km/h (0 Bft)
03.08.2013 22:49 19,1 C 16,8 C 72 % 1020,8 hPa 0,0 l/m 0 min 0 min 0,0 UV-I 0 W/m 0,0 km/h (0 Bft)
03.08.2013 22:50 19,1 C 16,8 C 72 % 1020,7 hPa 0,0 l/m 0 min 0 min 0,0 UV-I 0 W/m 0,0 km/h (0 Bft)
03.08.2013 22:51 19,1 C 16,8 C 72 % 1020,8 hPa 0,0 l/m 0 min 0 min 0,0 UV-I 0 W/m 0,0 km/h (0 Bft)
03.08.2013 22:52 19,0 C 16,8 C 72 % 1020,7 hPa 0,0 l/m 0 min 0 min 0,0 UV-I 0 W/m 0,0 km/h (0 Bft)
03.08.2013 22:53 19,0 C 16,8 C 72 % 1020,8 hPa 0,0 l/m 0 min 0 min 0,0 UV-I 0 W/m 0,0 km/h (0 Bft)
03.08.2013 22:54 18,9 C 16,8 C 73 % 1020,8 hPa 0,0 l/m 0 min 0 min 0,0 UV-I 0 W/m 0,0 km/h (0 Bft)
03.08.2013 22:55 18,9 C 16,8 C 73 % 1020,8 hPa 0,0 l/m 0 min 0 min 0,0 UV-I 0 W/m 0,0 km/h (0 Bft)
03.08.2013 22:56 18,9 C 16,8 C 72 % 1020,7 hPa 0,0 l/m 0 min 0 min 0,0 UV-I 0 W/m 0,0 km/h (0 Bft)
03.08.2013 22:57 18,9 C 16,8 C 73 % 1020,7 hPa 0,0 l/m 0 min 0 min 0,0 UV-I 0 W/m 0,0 km/h (0 Bft)
03.08.2013 23:00 18,8 C 16,2 C 73 % 1020,8 hPa 0,0 l/m 0 min 0 min 0,0 UV-I 0 W/m 0,0 km/h (0 Bft)
03.08.2013 23:02 18,7 C 16,2 C 74 % 1020,9 hPa 0,0 l/m 0 min 0 min 0,0 UV-I 0 W/m 0,0 km/h (0 Bft)
03.08.2013 23:05 18,7 C 16,2 C 74 % 1020,9 hPa 0,0 l/m 0 min 0 min 0,0 UV-I 0 W/m 0,0 km/h (0 Bft)
03.08.2013 23:06 18,7 C 16,2 C 74 % 1020,9 hPa 0,0 l/m 0 min 0 min 0,0 UV-I 0 W/m 0,0 km/h (0 Bft)
03.08.2013 23:08 18,6 C 16,2 C 75 % 1020,8 hPa 0,0 l/m 0 min 0 min 0,0 UV-I 0 W/m 0,0 km/h (0 Bft)
03.08.2013 23:10 18,6 C 16,2 C 75 % 1020,9 hPa 0,0 l/m 0 min 0 min 0,0 UV-I 0 W/m 0,0 km/h (0 Bft)
03.08.2013 23:12 18,5 C 16,2 C 75 % 1020,8 hPa 0,0 l/m 0 min 0 min 0,0 UV-I 0 W/m 0,0 km/h (0 Bft)
03.08.2013 23:14 18,4 C 16,2 C 75 % 1020,8 hPa 0,0 l/m 0 min 0 min 0,0 UV-I 0 W/m 0,0 km/h (0 Bft)
03.08.2013 23:16 18,4 C 16,2 C 76 % 1020,9 hPa 0,0 l/m 0 min 0 min 0,0 UV-I 0 W/m 0,0 km/h (0 Bft)
03.08.2013 23:18 18,4 C 16,2 C 76 % 1020,8 hPa 0,0 l/m 0 min 0 min 0,0 UV-I 0 W/m 0,0 km/h (0 Bft)
03.08.2013 23:20 18,3 C 16,2 C 76 % 1020,9 hPa 0,0 l/m 0 min 0 min 0,0 UV-I 0 W/m 0,0 km/h (0 Bft)
03.08.2013 23:22 18,3 C 16,2 C 76 % 1020,9 hPa 0,0 l/m 0 min 0 min 0,0 UV-I 0 W/m 0,0 km/h (0 Bft)
03.08.2013 23:24 18,3 C 16,2 C 77 % 1020,9 hPa 0,0 l/m 0 min 0 min 0,0 UV-I 0 W/m 0,0 km/h (0 Bft)
03.08.2013 23:28 18,2 C 16,2 C 77 % 1020,9 hPa 0,0 l/m 0 min 0 min 0,0 UV-I 0 W/m 0,0 km/h (0 Bft)
03.08.2013 23:30 18,2 C 16,2 C 77 % 1020,9 hPa 0,0 l/m 0 min 0 min 0,0 UV-I 0 W/m 0,0 km/h (0 Bft)
03.08.2013 23:32 18,1 C 15,7 C 77 % 1020,9 hPa 0,0 l/m 0 min 0 min 0,0 UV-I 0 W/m 0,0 km/h (0 Bft)
03.08.2013 23:34 18,1 C 15,7 C 77 % 1020,9 hPa 0,0 l/m 0 min 0 min 0,0 UV-I 0 W/m 0,0 km/h (0 Bft)
03.08.2013 23:36 18,0 C 15,7 C 78 % 1021,0 hPa 0,0 l/m 0 min 0 min 0,0 UV-I 0 W/m 0,0 km/h (0 Bft)
03.08.2013 23:38 17,9 C 15,7 C 78 % 1021,0 hPa 0,0 l/m 0 min 0 min 0,0 UV-I 0 W/m 0,0 km/h (0 Bft)
03.08.2013 23:40 17,9 C 15,7 C 79 % 1021,1 hPa 0,0 l/m 0 min 0 min 0,0 UV-I 0 W/m 0,0 km/h (0 Bft)
03.08.2013 23:42 17,9 C 15,7 C 80 % 1021,1 hPa 0,0 l/m 0 min 0 min 0,0 UV-I 0 W/m 0,0 km/h (0 Bft)
03.08.2013 23:44 17,8 C 15,7 C 80 % 1021,1 hPa 0,0 l/m 0 min 0 min 0,0 UV-I 0 W/m 0,0 km/h (0 Bft)
03.08.2013 23:46 17,7 C 15,7 C 81 % 1021,1 hPa 0,0 l/m 0 min 0 min 0,0 UV-I 0 W/m 0,0 km/h (0 Bft)
03.08.2013 23:48 17,7 C 15,7 C 81 % 1021,1 hPa 0,0 l/m 0 min 0 min 0,0 UV-I 0 W/m 0,0 km/h (0 Bft)
03.08.2013 23:50 17,7 C 15,7 C 81 % 1021,1 hPa 0,0 l/m 0 min 0 min 0,0 UV-I 0 W/m 0,0 km/h (0 Bft)
03.08.2013 23:52 17,6 C 15,7 C 81 % 1021,1 hPa 0,0 l/m 0 min 0 min 0,0 UV-I 0 W/m 0,0 km/h (0 Bft)
03.08.2013 23:54 17,6 C 15,7 C 81 % 1021,2 hPa 0,0 l/m 0 min 0 min 0,0 UV-I 0 W/m 0,0 km/h (0 Bft)
03.08.2013 23:56 17,6 C 15,7 C 81 % 1021,2 hPa 0,0 l/m 0 min 0 min 0,0 UV-I 0 W/m 0,0 km/h (0 Bft)
03.08.2013 23:58 17,6 C 15,7 C 81 % 1021,2 hPa 0,0 l/m 0 min 0 min 0,0 UV-I 0 W/m 0,0 km/h (0 Bft)
_ Min-Zeit 23:52 23:32 17:32 00:00 - - - - - 00:00
Minimum _ 17,6 C 15,7 C 46 % 1009,2 hPa - - - - - 0,0 km/h (0 Bft)
_ Max-Zeit 15:46 12:06 07:28 23:54 05:08 08:32 04:32 14:08 14:14 12:34
Maximum _ 27,4 C 29,1 C 97 % 1021,2 hPa 0,2 l/m 2 min 2 min 5,5 UV-I 1027 W/m 49,4 km/h
W-SW (6 Bft)
Durchschnitt _ 23,4 C 21,5 C 70 % 1016,3 hPa #1,6 l/m #7:42 h #2:02 h 2,8 UV-I 402 W/m 11,3 km/h (2 Bft)
© 2013 W. Hausmann